<?xml version="1.0" encoding="UTF-8" standalone="no" ?>
<gpx xmlns="http://www.topografix.com/GPX/1/1" creator="MapSource 6.11.6" version="1.1" xmlns:xsi="http://www.w3.org/2001/XMLSchema-instance" xsi:schemaLocation="http://www.topografix.com/GPX/1/1 http://www.topografix.com/GPX/1/1/gpx.xsd">

  <metadata>
    <link href="http://www.garmin.com">
      <text>Garmin International</text>
    </link>
    <time>2009-08-25T19:14:03Z</time>
    <bounds maxlat="50.734404" maxlon="6.553057" minlat="50.709688" minlon="6.525163"/>
  </metadata>

  <trk>
    <name>Drover Heide</name>
    <extensions>
      <gpxx:TrackExtension xmlns:gpxx="http://www.garmin.com/xmlschemas/GpxExtensions/v3" xmlns:xsi="http://www.w3.org/2001/XMLSchema-instance" xsi:schemaLocation="http://www.garmin.com/xmlschemas/GpxExtensions/v3 http://www.garmin.com/xmlschemas/GpxExtensions/v3/GpxExtensionsv3.xsd">
        <gpxx:DisplayColor>Blue</gpxx:DisplayColor>
      </gpxx:TrackExtension>
    </extensions>
    <trkseg>
      <trkpt lat="50.732950" lon="6.549243">
        <ele>301.030000</ele>
        <time>2009-08-23T08:15:25Z</time>
      </trkpt>
      <trkpt lat="50.732958" lon="6.549232">
        <ele>299.590000</ele>
        <time>2009-08-23T08:15:46Z</time>
      </trkpt>
      <trkpt lat="50.732982" lon="6.549157">
        <ele>299.110000</ele>
        <time>2009-08-23T08:16:04Z</time>
      </trkpt>
      <trkpt lat="50.732998" lon="6.549206">
        <ele>296.700000</ele>
        <time>2009-08-23T08:16:41Z</time>
      </trkpt>
      <trkpt lat="50.732939" lon="6.549252">
        <ele>294.780000</ele>
        <time>2009-08-23T08:17:37Z</time>
      </trkpt>
      <trkpt lat="50.732943" lon="6.549284">
        <ele>293.820000</ele>
        <time>2009-08-23T08:17:54Z</time>
      </trkpt>
      <trkpt lat="50.732952" lon="6.549284">
        <ele>293.820000</ele>
        <time>2009-08-23T08:17:55Z</time>
      </trkpt>
      <trkpt lat="50.733017" lon="6.549257">
        <ele>292.380000</ele>
        <time>2009-08-23T08:18:11Z</time>
      </trkpt>
      <trkpt lat="50.733032" lon="6.549142">
        <ele>292.380000</ele>
        <time>2009-08-23T08:18:26Z</time>
      </trkpt>
      <trkpt lat="50.733036" lon="6.549080">
        <ele>290.460000</ele>
        <time>2009-08-23T08:18:53Z</time>
      </trkpt>
      <trkpt lat="50.733058" lon="6.548798">
        <ele>289.970000</ele>
        <time>2009-08-23T08:19:09Z</time>
      </trkpt>
      <trkpt lat="50.733088" lon="6.548640">
        <ele>289.010000</ele>
        <time>2009-08-23T08:19:31Z</time>
      </trkpt>
      <trkpt lat="50.733089" lon="6.548599">
        <ele>289.490000</ele>
        <time>2009-08-23T08:19:33Z</time>
      </trkpt>
      <trkpt lat="50.733109" lon="6.548459">
        <ele>289.010000</ele>
        <time>2009-08-23T08:19:38Z</time>
      </trkpt>
      <trkpt lat="50.733130" lon="6.548088">
        <ele>288.530000</ele>
        <time>2009-08-23T08:19:54Z</time>
      </trkpt>
      <trkpt lat="50.733140" lon="6.548011">
        <ele>288.530000</ele>
        <time>2009-08-23T08:19:58Z</time>
      </trkpt>
      <trkpt lat="50.733177" lon="6.547687">
        <ele>288.530000</ele>
        <time>2009-08-23T08:20:14Z</time>
      </trkpt>
      <trkpt lat="50.733185" lon="6.547644">
        <ele>288.050000</ele>
        <time>2009-08-23T08:20:16Z</time>
      </trkpt>
      <trkpt lat="50.733266" lon="6.547323">
        <ele>287.570000</ele>
        <time>2009-08-23T08:20:31Z</time>
      </trkpt>
      <trkpt lat="50.733277" lon="6.547279">
        <ele>287.570000</ele>
        <time>2009-08-23T08:20:33Z</time>
      </trkpt>
      <trkpt lat="50.733361" lon="6.547058">
        <ele>286.610000</ele>
        <time>2009-08-23T08:20:48Z</time>
      </trkpt>
      <trkpt lat="50.733451" lon="6.546953">
        <ele>286.130000</ele>
        <time>2009-08-23T08:20:56Z</time>
      </trkpt>
      <trkpt lat="50.733494" lon="6.546859">
        <ele>286.130000</ele>
        <time>2009-08-23T08:21:01Z</time>
      </trkpt>
      <trkpt lat="50.733654" lon="6.546650">
        <ele>285.650000</ele>
        <time>2009-08-23T08:21:16Z</time>
      </trkpt>
      <trkpt lat="50.733775" lon="6.546408">
        <ele>285.170000</ele>
        <time>2009-08-23T08:21:31Z</time>
      </trkpt>
      <trkpt lat="50.733870" lon="6.546050">
        <ele>284.690000</ele>
        <time>2009-08-23T08:21:47Z</time>
      </trkpt>
      <trkpt lat="50.733895" lon="6.545754">
        <ele>284.210000</ele>
        <time>2009-08-23T08:22:02Z</time>
      </trkpt>
      <trkpt lat="50.733898" lon="6.545653">
        <ele>284.210000</ele>
        <time>2009-08-23T08:22:07Z</time>
      </trkpt>
      <trkpt lat="50.733914" lon="6.545546">
        <ele>283.730000</ele>
        <time>2009-08-23T08:22:12Z</time>
      </trkpt>
      <trkpt lat="50.733926" lon="6.545330">
        <ele>283.730000</ele>
        <time>2009-08-23T08:22:24Z</time>
      </trkpt>
      <trkpt lat="50.733962" lon="6.544987">
        <ele>283.250000</ele>
        <time>2009-08-23T08:22:40Z</time>
      </trkpt>
      <trkpt lat="50.734002" lon="6.544648">
        <ele>283.250000</ele>
        <time>2009-08-23T08:22:53Z</time>
      </trkpt>
      <trkpt lat="50.734016" lon="6.544486">
        <ele>283.250000</ele>
        <time>2009-08-23T08:23:00Z</time>
      </trkpt>
      <trkpt lat="50.734062" lon="6.544295">
        <ele>282.770000</ele>
        <time>2009-08-23T08:23:09Z</time>
      </trkpt>
      <trkpt lat="50.734072" lon="6.544209">
        <ele>282.770000</ele>
        <time>2009-08-23T08:23:13Z</time>
      </trkpt>
      <trkpt lat="50.734125" lon="6.543985">
        <ele>282.280000</ele>
        <time>2009-08-23T08:23:24Z</time>
      </trkpt>
      <trkpt lat="50.734133" lon="6.543951">
        <ele>282.280000</ele>
        <time>2009-08-23T08:23:26Z</time>
      </trkpt>
      <trkpt lat="50.734184" lon="6.543673">
        <ele>282.280000</ele>
        <time>2009-08-23T08:23:40Z</time>
      </trkpt>
      <trkpt lat="50.734203" lon="6.543464">
        <ele>281.800000</ele>
        <time>2009-08-23T08:23:50Z</time>
      </trkpt>
      <trkpt lat="50.734197" lon="6.543233">
        <ele>281.800000</ele>
        <time>2009-08-23T08:24:00Z</time>
      </trkpt>
      <trkpt lat="50.734215" lon="6.543061">
        <ele>281.320000</ele>
        <time>2009-08-23T08:24:09Z</time>
      </trkpt>
      <trkpt lat="50.734239" lon="6.542838">
        <ele>281.320000</ele>
        <time>2009-08-23T08:24:22Z</time>
      </trkpt>
      <trkpt lat="50.734290" lon="6.542575">
        <ele>280.360000</ele>
        <time>2009-08-23T08:24:35Z</time>
      </trkpt>
      <trkpt lat="50.734324" lon="6.542314">
        <ele>279.880000</ele>
        <time>2009-08-23T08:24:47Z</time>
      </trkpt>
      <trkpt lat="50.734349" lon="6.542030">
        <ele>279.400000</ele>
        <time>2009-08-23T08:25:00Z</time>
      </trkpt>
      <trkpt lat="50.734388" lon="6.541765">
        <ele>277.960000</ele>
        <time>2009-08-23T08:25:13Z</time>
      </trkpt>
      <trkpt lat="50.734394" lon="6.541661">
        <ele>277.480000</ele>
        <time>2009-08-23T08:25:17Z</time>
      </trkpt>
      <trkpt lat="50.734400" lon="6.541332">
        <ele>277.000000</ele>
        <time>2009-08-23T08:25:31Z</time>
      </trkpt>
      <trkpt lat="50.734340" lon="6.541139">
        <ele>276.520000</ele>
        <time>2009-08-23T08:25:40Z</time>
      </trkpt>
      <trkpt lat="50.734307" lon="6.541042">
        <ele>276.520000</ele>
        <time>2009-08-23T08:25:45Z</time>
      </trkpt>
      <trkpt lat="50.734308" lon="6.540987">
        <ele>275.560000</ele>
        <time>2009-08-23T08:26:00Z</time>
      </trkpt>
      <trkpt lat="50.734306" lon="6.541020">
        <ele>274.110000</ele>
        <time>2009-08-23T08:26:43Z</time>
      </trkpt>
      <trkpt lat="50.734308" lon="6.541049">
        <ele>273.630000</ele>
        <time>2009-08-23T08:26:53Z</time>
      </trkpt>
      <trkpt lat="50.734263" lon="6.541010">
        <ele>273.630000</ele>
        <time>2009-08-23T08:27:00Z</time>
      </trkpt>
      <trkpt lat="50.734269" lon="6.540793">
        <ele>272.670000</ele>
        <time>2009-08-23T08:27:15Z</time>
      </trkpt>
      <trkpt lat="50.734253" lon="6.540780">
        <ele>271.710000</ele>
        <time>2009-08-23T08:27:26Z</time>
      </trkpt>
      <trkpt lat="50.734222" lon="6.540683">
        <ele>270.750000</ele>
        <time>2009-08-23T08:27:43Z</time>
      </trkpt>
      <trkpt lat="50.734219" lon="6.540683">
        <ele>270.750000</ele>
        <time>2009-08-23T08:27:58Z</time>
      </trkpt>
      <trkpt lat="50.734231" lon="6.540690">
        <ele>269.310000</ele>
        <time>2009-08-23T08:28:29Z</time>
      </trkpt>
      <trkpt lat="50.734159" lon="6.540621">
        <ele>268.830000</ele>
        <time>2009-08-23T08:28:45Z</time>
      </trkpt>
      <trkpt lat="50.734062" lon="6.540397">
        <ele>268.350000</ele>
        <time>2009-08-23T08:28:57Z</time>
      </trkpt>
      <trkpt lat="50.734016" lon="6.540290">
        <ele>268.350000</ele>
        <time>2009-08-23T08:29:03Z</time>
      </trkpt>
      <trkpt lat="50.733985" lon="6.540232">
        <ele>268.350000</ele>
        <time>2009-08-23T08:29:07Z</time>
      </trkpt>
      <trkpt lat="50.733889" lon="6.539985">
        <ele>267.380000</ele>
        <time>2009-08-23T08:29:21Z</time>
      </trkpt>
      <trkpt lat="50.733762" lon="6.539708">
        <ele>267.380000</ele>
        <time>2009-08-23T08:29:34Z</time>
      </trkpt>
      <trkpt lat="50.733678" lon="6.539429">
        <ele>266.420000</ele>
        <time>2009-08-23T08:29:50Z</time>
      </trkpt>
      <trkpt lat="50.733589" lon="6.539212">
        <ele>265.940000</ele>
        <time>2009-08-23T08:30:02Z</time>
      </trkpt>
      <trkpt lat="50.733506" lon="6.538877">
        <ele>265.460000</ele>
        <time>2009-08-23T08:30:18Z</time>
      </trkpt>
      <trkpt lat="50.733524" lon="6.538837">
        <ele>265.940000</ele>
        <time>2009-08-23T08:30:21Z</time>
      </trkpt>
      <trkpt lat="50.733521" lon="6.538881">
        <ele>264.500000</ele>
        <time>2009-08-23T08:30:44Z</time>
      </trkpt>
      <trkpt lat="50.733505" lon="6.538818">
        <ele>264.980000</ele>
        <time>2009-08-23T08:30:48Z</time>
      </trkpt>
      <trkpt lat="50.733410" lon="6.538573">
        <ele>264.500000</ele>
        <time>2009-08-23T08:31:02Z</time>
      </trkpt>
      <trkpt lat="50.733253" lon="6.538361">
        <ele>264.020000</ele>
        <time>2009-08-23T08:31:16Z</time>
      </trkpt>
      <trkpt lat="50.733131" lon="6.538102">
        <ele>263.540000</ele>
        <time>2009-08-23T08:31:30Z</time>
      </trkpt>
      <trkpt lat="50.733064" lon="6.537826">
        <ele>263.060000</ele>
        <time>2009-08-23T08:31:45Z</time>
      </trkpt>
      <trkpt lat="50.733080" lon="6.537812">
        <ele>263.060000</ele>
        <time>2009-08-23T08:31:48Z</time>
      </trkpt>
      <trkpt lat="50.733075" lon="6.537775">
        <ele>261.620000</ele>
        <time>2009-08-23T08:32:40Z</time>
      </trkpt>
      <trkpt lat="50.732993" lon="6.537639">
        <ele>261.140000</ele>
        <time>2009-08-23T08:32:51Z</time>
      </trkpt>
      <trkpt lat="50.732867" lon="6.537364">
        <ele>261.140000</ele>
        <time>2009-08-23T08:33:07Z</time>
      </trkpt>
      <trkpt lat="50.732735" lon="6.537051">
        <ele>260.650000</ele>
        <time>2009-08-23T08:33:24Z</time>
      </trkpt>
      <trkpt lat="50.732656" lon="6.536827">
        <ele>260.650000</ele>
        <time>2009-08-23T08:33:36Z</time>
      </trkpt>
      <trkpt lat="50.732567" lon="6.536612">
        <ele>260.650000</ele>
        <time>2009-08-23T08:33:49Z</time>
      </trkpt>
      <trkpt lat="50.732459" lon="6.536349">
        <ele>260.170000</ele>
        <time>2009-08-23T08:34:04Z</time>
      </trkpt>
      <trkpt lat="50.732391" lon="6.536134">
        <ele>260.650000</ele>
        <time>2009-08-23T08:34:15Z</time>
      </trkpt>
      <trkpt lat="50.732312" lon="6.535886">
        <ele>260.170000</ele>
        <time>2009-08-23T08:34:30Z</time>
      </trkpt>
      <trkpt lat="50.732213" lon="6.535697">
        <ele>260.170000</ele>
        <time>2009-08-23T08:34:42Z</time>
      </trkpt>
      <trkpt lat="50.732188" lon="6.535635">
        <ele>260.170000</ele>
        <time>2009-08-23T08:34:46Z</time>
      </trkpt>
      <trkpt lat="50.732046" lon="6.535265">
        <ele>260.170000</ele>
        <time>2009-08-23T08:35:04Z</time>
      </trkpt>
      <trkpt lat="50.732023" lon="6.535194">
        <ele>260.170000</ele>
        <time>2009-08-23T08:35:08Z</time>
      </trkpt>
      <trkpt lat="50.731915" lon="6.534870">
        <ele>259.690000</ele>
        <time>2009-08-23T08:35:24Z</time>
      </trkpt>
      <trkpt lat="50.731867" lon="6.534714">
        <ele>259.690000</ele>
        <time>2009-08-23T08:35:33Z</time>
      </trkpt>
      <trkpt lat="50.731818" lon="6.534462">
        <ele>259.210000</ele>
        <time>2009-08-23T08:35:46Z</time>
      </trkpt>
      <trkpt lat="50.731821" lon="6.534153">
        <ele>259.210000</ele>
        <time>2009-08-23T08:35:59Z</time>
      </trkpt>
      <trkpt lat="50.731821" lon="6.533838">
        <ele>258.730000</ele>
        <time>2009-08-23T08:36:15Z</time>
      </trkpt>
      <trkpt lat="50.731856" lon="6.533525">
        <ele>258.730000</ele>
        <time>2009-08-23T08:36:29Z</time>
      </trkpt>
      <trkpt lat="50.731860" lon="6.533455">
        <ele>258.730000</ele>
        <time>2009-08-23T08:36:32Z</time>
      </trkpt>
      <trkpt lat="50.731810" lon="6.533134">
        <ele>258.250000</ele>
        <time>2009-08-23T08:36:49Z</time>
      </trkpt>
      <trkpt lat="50.731823" lon="6.532733">
        <ele>257.770000</ele>
        <time>2009-08-23T08:37:06Z</time>
      </trkpt>
      <trkpt lat="50.731803" lon="6.532401">
        <ele>257.290000</ele>
        <time>2009-08-23T08:37:22Z</time>
      </trkpt>
      <trkpt lat="50.731806" lon="6.532382">
        <ele>257.290000</ele>
        <time>2009-08-23T08:37:23Z</time>
      </trkpt>
      <trkpt lat="50.731794" lon="6.532262">
        <ele>257.290000</ele>
        <time>2009-08-23T08:37:28Z</time>
      </trkpt>
      <trkpt lat="50.731826" lon="6.531895">
        <ele>256.810000</ele>
        <time>2009-08-23T08:37:44Z</time>
      </trkpt>
      <trkpt lat="50.731820" lon="6.531521">
        <ele>256.810000</ele>
        <time>2009-08-23T08:38:01Z</time>
      </trkpt>
      <trkpt lat="50.731805" lon="6.531203">
        <ele>256.330000</ele>
        <time>2009-08-23T08:38:17Z</time>
      </trkpt>
      <trkpt lat="50.731776" lon="6.530869">
        <ele>256.330000</ele>
        <time>2009-08-23T08:38:32Z</time>
      </trkpt>
      <trkpt lat="50.731765" lon="6.530552">
        <ele>256.330000</ele>
        <time>2009-08-23T08:38:47Z</time>
      </trkpt>
      <trkpt lat="50.731710" lon="6.530196">
        <ele>255.850000</ele>
        <time>2009-08-23T08:39:04Z</time>
      </trkpt>
      <trkpt lat="50.731666" lon="6.530147">
        <ele>255.850000</ele>
        <time>2009-08-23T08:39:20Z</time>
      </trkpt>
      <trkpt lat="50.731691" lon="6.530166">
        <ele>254.410000</ele>
        <time>2009-08-23T08:40:05Z</time>
      </trkpt>
      <trkpt lat="50.731728" lon="6.530124">
        <ele>254.410000</ele>
        <time>2009-08-23T08:40:10Z</time>
      </trkpt>
      <trkpt lat="50.731730" lon="6.529798">
        <ele>254.410000</ele>
        <time>2009-08-23T08:40:26Z</time>
      </trkpt>
      <trkpt lat="50.731711" lon="6.529592">
        <ele>253.930000</ele>
        <time>2009-08-23T08:40:35Z</time>
      </trkpt>
      <trkpt lat="50.731723" lon="6.529435">
        <ele>253.930000</ele>
        <time>2009-08-23T08:40:43Z</time>
      </trkpt>
      <trkpt lat="50.731681" lon="6.529383">
        <ele>253.440000</ele>
        <time>2009-08-23T08:40:57Z</time>
      </trkpt>
      <trkpt lat="50.731678" lon="6.529337">
        <ele>252.480000</ele>
        <time>2009-08-23T08:41:52Z</time>
      </trkpt>
      <trkpt lat="50.731684" lon="6.529187">
        <ele>252.480000</ele>
        <time>2009-08-23T08:42:10Z</time>
      </trkpt>
      <trkpt lat="50.731698" lon="6.529147">
        <ele>252.000000</ele>
        <time>2009-08-23T08:42:18Z</time>
      </trkpt>
      <trkpt lat="50.731693" lon="6.529099">
        <ele>252.000000</ele>
        <time>2009-08-23T08:42:20Z</time>
      </trkpt>
      <trkpt lat="50.731697" lon="6.528971">
        <ele>252.000000</ele>
        <time>2009-08-23T08:42:27Z</time>
      </trkpt>
      <trkpt lat="50.731698" lon="6.528643">
        <ele>251.520000</ele>
        <time>2009-08-23T08:42:44Z</time>
      </trkpt>
      <trkpt lat="50.731706" lon="6.528490">
        <ele>251.520000</ele>
        <time>2009-08-23T08:42:50Z</time>
      </trkpt>
      <trkpt lat="50.731711" lon="6.528172">
        <ele>251.520000</ele>
        <time>2009-08-23T08:43:05Z</time>
      </trkpt>
      <trkpt lat="50.731708" lon="6.527896">
        <ele>251.520000</ele>
        <time>2009-08-23T08:43:19Z</time>
      </trkpt>
      <trkpt lat="50.731698" lon="6.527612">
        <ele>251.040000</ele>
        <time>2009-08-23T08:43:32Z</time>
      </trkpt>
      <trkpt lat="50.731697" lon="6.527260">
        <ele>251.040000</ele>
        <time>2009-08-23T08:43:49Z</time>
      </trkpt>
      <trkpt lat="50.731694" lon="6.526964">
        <ele>251.040000</ele>
        <time>2009-08-23T08:44:03Z</time>
      </trkpt>
      <trkpt lat="50.731692" lon="6.526937">
        <ele>251.040000</ele>
        <time>2009-08-23T08:44:05Z</time>
      </trkpt>
      <trkpt lat="50.731673" lon="6.526560">
        <ele>250.560000</ele>
        <time>2009-08-23T08:44:21Z</time>
      </trkpt>
      <trkpt lat="50.731660" lon="6.526250">
        <ele>250.560000</ele>
        <time>2009-08-23T08:44:37Z</time>
      </trkpt>
      <trkpt lat="50.731646" lon="6.525923">
        <ele>250.560000</ele>
        <time>2009-08-23T08:44:53Z</time>
      </trkpt>
      <trkpt lat="50.731641" lon="6.525641">
        <ele>250.560000</ele>
        <time>2009-08-23T08:45:08Z</time>
      </trkpt>
      <trkpt lat="50.731654" lon="6.525458">
        <ele>250.080000</ele>
        <time>2009-08-23T08:45:22Z</time>
      </trkpt>
      <trkpt lat="50.731629" lon="6.525184">
        <ele>250.560000</ele>
        <time>2009-08-23T08:45:35Z</time>
      </trkpt>
      <trkpt lat="50.731623" lon="6.525172">
        <ele>250.560000</ele>
        <time>2009-08-23T08:45:36Z</time>
      </trkpt>
      <trkpt lat="50.731546" lon="6.525163">
        <ele>250.080000</ele>
        <time>2009-08-23T08:45:42Z</time>
      </trkpt>
      <trkpt lat="50.731473" lon="6.525197">
        <ele>250.080000</ele>
        <time>2009-08-23T08:45:57Z</time>
      </trkpt>
      <trkpt lat="50.731467" lon="6.525238">
        <ele>249.120000</ele>
        <time>2009-08-23T08:46:30Z</time>
      </trkpt>
      <trkpt lat="50.731467" lon="6.525237">
        <ele>249.600000</ele>
        <time>2009-08-23T08:46:37Z</time>
      </trkpt>
      <trkpt lat="50.731312" lon="6.525275">
        <ele>248.640000</ele>
        <time>2009-08-23T08:46:49Z</time>
      </trkpt>
      <trkpt lat="50.731113" lon="6.525341">
        <ele>248.160000</ele>
        <time>2009-08-23T08:47:04Z</time>
      </trkpt>
      <trkpt lat="50.730932" lon="6.525451">
        <ele>247.680000</ele>
        <time>2009-08-23T08:47:18Z</time>
      </trkpt>
      <trkpt lat="50.730732" lon="6.525463">
        <ele>247.200000</ele>
        <time>2009-08-23T08:47:33Z</time>
      </trkpt>
      <trkpt lat="50.730549" lon="6.525376">
        <ele>247.200000</ele>
        <time>2009-08-23T08:47:48Z</time>
      </trkpt>
      <trkpt lat="50.730369" lon="6.525537">
        <ele>246.720000</ele>
        <time>2009-08-23T08:48:02Z</time>
      </trkpt>
      <trkpt lat="50.730343" lon="6.525558">
        <ele>246.720000</ele>
        <time>2009-08-23T08:48:04Z</time>
      </trkpt>
      <trkpt lat="50.730142" lon="6.525716">
        <ele>246.230000</ele>
        <time>2009-08-23T08:48:21Z</time>
      </trkpt>
      <trkpt lat="50.730079" lon="6.525754">
        <ele>246.230000</ele>
        <time>2009-08-23T08:48:27Z</time>
      </trkpt>
      <trkpt lat="50.730060" lon="6.525731">
        <ele>246.230000</ele>
        <time>2009-08-23T08:48:29Z</time>
      </trkpt>
      <trkpt lat="50.730048" lon="6.525744">
        <ele>240.950000</ele>
        <time>2009-08-23T08:53:33Z</time>
      </trkpt>
      <trkpt lat="50.730036" lon="6.525768">
        <ele>240.470000</ele>
        <time>2009-08-23T08:55:10Z</time>
      </trkpt>
      <trkpt lat="50.729902" lon="6.525905">
        <ele>239.990000</ele>
        <time>2009-08-23T08:55:25Z</time>
      </trkpt>
      <trkpt lat="50.729890" lon="6.525909">
        <ele>239.990000</ele>
        <time>2009-08-23T08:55:26Z</time>
      </trkpt>
      <trkpt lat="50.729755" lon="6.526004">
        <ele>239.990000</ele>
        <time>2009-08-23T08:55:42Z</time>
      </trkpt>
      <trkpt lat="50.729715" lon="6.526025">
        <ele>239.990000</ele>
        <time>2009-08-23T08:55:45Z</time>
      </trkpt>
      <trkpt lat="50.729566" lon="6.526039">
        <ele>239.510000</ele>
        <time>2009-08-23T08:55:56Z</time>
      </trkpt>
      <trkpt lat="50.729473" lon="6.526045">
        <ele>239.510000</ele>
        <time>2009-08-23T08:56:03Z</time>
      </trkpt>
      <trkpt lat="50.729312" lon="6.526075">
        <ele>239.020000</ele>
        <time>2009-08-23T08:56:17Z</time>
      </trkpt>
      <trkpt lat="50.729134" lon="6.526122">
        <ele>239.020000</ele>
        <time>2009-08-23T08:56:30Z</time>
      </trkpt>
      <trkpt lat="50.728978" lon="6.526140">
        <ele>239.020000</ele>
        <time>2009-08-23T08:56:41Z</time>
      </trkpt>
      <trkpt lat="50.728883" lon="6.526197">
        <ele>239.020000</ele>
        <time>2009-08-23T08:56:55Z</time>
      </trkpt>
      <trkpt lat="50.728707" lon="6.526287">
        <ele>238.540000</ele>
        <time>2009-08-23T08:57:12Z</time>
      </trkpt>
      <trkpt lat="50.728582" lon="6.526386">
        <ele>239.020000</ele>
        <time>2009-08-23T08:57:28Z</time>
      </trkpt>
      <trkpt lat="50.728498" lon="6.526426">
        <ele>239.020000</ele>
        <time>2009-08-23T08:57:43Z</time>
      </trkpt>
      <trkpt lat="50.728481" lon="6.526437">
        <ele>239.020000</ele>
        <time>2009-08-23T08:57:45Z</time>
      </trkpt>
      <trkpt lat="50.728379" lon="6.526598">
        <ele>239.020000</ele>
        <time>2009-08-23T08:58:00Z</time>
      </trkpt>
      <trkpt lat="50.728317" lon="6.526633">
        <ele>239.020000</ele>
        <time>2009-08-23T08:58:13Z</time>
      </trkpt>
      <trkpt lat="50.728301" lon="6.526663">
        <ele>239.510000</ele>
        <time>2009-08-23T08:58:16Z</time>
      </trkpt>
      <trkpt lat="50.728191" lon="6.526717">
        <ele>239.020000</ele>
        <time>2009-08-23T08:58:25Z</time>
      </trkpt>
      <trkpt lat="50.728111" lon="6.526769">
        <ele>239.020000</ele>
        <time>2009-08-23T08:58:32Z</time>
      </trkpt>
      <trkpt lat="50.728018" lon="6.526940">
        <ele>238.540000</ele>
        <time>2009-08-23T08:58:46Z</time>
      </trkpt>
      <trkpt lat="50.727968" lon="6.526969">
        <ele>239.020000</ele>
        <time>2009-08-23T08:58:50Z</time>
      </trkpt>
      <trkpt lat="50.727818" lon="6.527042">
        <ele>238.540000</ele>
        <time>2009-08-23T08:59:04Z</time>
      </trkpt>
      <trkpt lat="50.727691" lon="6.527080">
        <ele>238.060000</ele>
        <time>2009-08-23T08:59:20Z</time>
      </trkpt>
      <trkpt lat="50.727441" lon="6.527094">
        <ele>238.060000</ele>
        <time>2009-08-23T08:59:40Z</time>
      </trkpt>
      <trkpt lat="50.727329" lon="6.527134">
        <ele>238.060000</ele>
        <time>2009-08-23T08:59:55Z</time>
      </trkpt>
      <trkpt lat="50.727192" lon="6.527191">
        <ele>237.580000</ele>
        <time>2009-08-23T09:00:07Z</time>
      </trkpt>
      <trkpt lat="50.727159" lon="6.527197">
        <ele>237.580000</ele>
        <time>2009-08-23T09:00:22Z</time>
      </trkpt>
      <trkpt lat="50.726966" lon="6.527293">
        <ele>237.100000</ele>
        <time>2009-08-23T09:01:12Z</time>
      </trkpt>
      <trkpt lat="50.726881" lon="6.527363">
        <ele>237.100000</ele>
        <time>2009-08-23T09:01:21Z</time>
      </trkpt>
      <trkpt lat="50.726852" lon="6.527393">
        <ele>237.100000</ele>
        <time>2009-08-23T09:01:25Z</time>
      </trkpt>
      <trkpt lat="50.726780" lon="6.527503">
        <ele>237.100000</ele>
        <time>2009-08-23T09:01:40Z</time>
      </trkpt>
      <trkpt lat="50.726754" lon="6.527560">
        <ele>236.620000</ele>
        <time>2009-08-23T09:01:45Z</time>
      </trkpt>
      <trkpt lat="50.726704" lon="6.527671">
        <ele>236.620000</ele>
        <time>2009-08-23T09:02:01Z</time>
      </trkpt>
      <trkpt lat="50.726620" lon="6.527746">
        <ele>236.620000</ele>
        <time>2009-08-23T09:02:07Z</time>
      </trkpt>
      <trkpt lat="50.726458" lon="6.527921">
        <ele>236.620000</ele>
        <time>2009-08-23T09:02:23Z</time>
      </trkpt>
      <trkpt lat="50.726453" lon="6.527896">
        <ele>235.660000</ele>
        <time>2009-08-23T09:02:36Z</time>
      </trkpt>
      <trkpt lat="50.726416" lon="6.527978">
        <ele>235.660000</ele>
        <time>2009-08-23T09:03:10Z</time>
      </trkpt>
      <trkpt lat="50.726392" lon="6.527991">
        <ele>235.660000</ele>
        <time>2009-08-23T09:03:36Z</time>
      </trkpt>
      <trkpt lat="50.726330" lon="6.527989">
        <ele>235.180000</ele>
        <time>2009-08-23T09:04:00Z</time>
      </trkpt>
      <trkpt lat="50.726264" lon="6.528022">
        <ele>234.700000</ele>
        <time>2009-08-23T09:04:28Z</time>
      </trkpt>
      <trkpt lat="50.726196" lon="6.528051">
        <ele>234.700000</ele>
        <time>2009-08-23T09:04:53Z</time>
      </trkpt>
      <trkpt lat="50.726122" lon="6.528111">
        <ele>234.700000</ele>
        <time>2009-08-23T09:05:27Z</time>
      </trkpt>
      <trkpt lat="50.726092" lon="6.528102">
        <ele>234.220000</ele>
        <time>2009-08-23T09:05:42Z</time>
      </trkpt>
      <trkpt lat="50.726062" lon="6.528127">
        <ele>234.220000</ele>
        <time>2009-08-23T09:06:21Z</time>
      </trkpt>
      <trkpt lat="50.725986" lon="6.528159">
        <ele>234.220000</ele>
        <time>2009-08-23T09:06:40Z</time>
      </trkpt>
      <trkpt lat="50.725843" lon="6.528240">
        <ele>234.220000</ele>
        <time>2009-08-23T09:07:06Z</time>
      </trkpt>
      <trkpt lat="50.725837" lon="6.528218">
        <ele>234.220000</ele>
        <time>2009-08-23T09:07:10Z</time>
      </trkpt>
      <trkpt lat="50.725701" lon="6.528251">
        <ele>234.220000</ele>
        <time>2009-08-23T09:07:22Z</time>
      </trkpt>
      <trkpt lat="50.725683" lon="6.528253">
        <ele>234.220000</ele>
        <time>2009-08-23T09:07:25Z</time>
      </trkpt>
      <trkpt lat="50.725531" lon="6.528427">
        <ele>234.220000</ele>
        <time>2009-08-23T09:07:42Z</time>
      </trkpt>
      <trkpt lat="50.725382" lon="6.528549">
        <ele>235.180000</ele>
        <time>2009-08-23T09:07:58Z</time>
      </trkpt>
      <trkpt lat="50.725235" lon="6.528686">
        <ele>235.660000</ele>
        <time>2009-08-23T09:08:14Z</time>
      </trkpt>
      <trkpt lat="50.725217" lon="6.528692">
        <ele>235.660000</ele>
        <time>2009-08-23T09:08:16Z</time>
      </trkpt>
      <trkpt lat="50.725085" lon="6.528828">
        <ele>236.140000</ele>
        <time>2009-08-23T09:08:31Z</time>
      </trkpt>
      <trkpt lat="50.724941" lon="6.528904">
        <ele>236.140000</ele>
        <time>2009-08-23T09:08:45Z</time>
      </trkpt>
      <trkpt lat="50.724818" lon="6.529020">
        <ele>236.140000</ele>
        <time>2009-08-23T09:08:59Z</time>
      </trkpt>
      <trkpt lat="50.724688" lon="6.529135">
        <ele>236.140000</ele>
        <time>2009-08-23T09:09:13Z</time>
      </trkpt>
      <trkpt lat="50.724638" lon="6.529171">
        <ele>236.140000</ele>
        <time>2009-08-23T09:09:28Z</time>
      </trkpt>
      <trkpt lat="50.724648" lon="6.529258">
        <ele>235.180000</ele>
        <time>2009-08-23T09:10:27Z</time>
      </trkpt>
      <trkpt lat="50.724582" lon="6.529250">
        <ele>235.660000</ele>
        <time>2009-08-23T09:11:38Z</time>
      </trkpt>
      <trkpt lat="50.724406" lon="6.529280">
        <ele>235.660000</ele>
        <time>2009-08-23T09:11:51Z</time>
      </trkpt>
      <trkpt lat="50.724327" lon="6.529299">
        <ele>235.660000</ele>
        <time>2009-08-23T09:11:57Z</time>
      </trkpt>
      <trkpt lat="50.724281" lon="6.529332">
        <ele>235.180000</ele>
        <time>2009-08-23T09:12:10Z</time>
      </trkpt>
      <trkpt lat="50.724123" lon="6.529407">
        <ele>235.660000</ele>
        <time>2009-08-23T09:12:31Z</time>
      </trkpt>
      <trkpt lat="50.724037" lon="6.529446">
        <ele>235.660000</ele>
        <time>2009-08-23T09:12:48Z</time>
      </trkpt>
      <trkpt lat="50.723967" lon="6.529473">
        <ele>235.660000</ele>
        <time>2009-08-23T09:13:08Z</time>
      </trkpt>
      <trkpt lat="50.723796" lon="6.529547">
        <ele>236.140000</ele>
        <time>2009-08-23T09:13:31Z</time>
      </trkpt>
      <trkpt lat="50.723631" lon="6.529624">
        <ele>235.660000</ele>
        <time>2009-08-23T09:13:47Z</time>
      </trkpt>
      <trkpt lat="50.723472" lon="6.529660">
        <ele>235.660000</ele>
        <time>2009-08-23T09:14:01Z</time>
      </trkpt>
      <trkpt lat="50.723360" lon="6.529744">
        <ele>236.140000</ele>
        <time>2009-08-23T09:14:15Z</time>
      </trkpt>
      <trkpt lat="50.723222" lon="6.529767">
        <ele>235.180000</ele>
        <time>2009-08-23T09:14:29Z</time>
      </trkpt>
      <trkpt lat="50.723077" lon="6.529804">
        <ele>235.660000</ele>
        <time>2009-08-23T09:14:43Z</time>
      </trkpt>
      <trkpt lat="50.722939" lon="6.529892">
        <ele>235.660000</ele>
        <time>2009-08-23T09:14:56Z</time>
      </trkpt>
      <trkpt lat="50.722830" lon="6.529930">
        <ele>235.660000</ele>
        <time>2009-08-23T09:15:08Z</time>
      </trkpt>
      <trkpt lat="50.722726" lon="6.530006">
        <ele>235.660000</ele>
        <time>2009-08-23T09:15:20Z</time>
      </trkpt>
      <trkpt lat="50.722560" lon="6.530078">
        <ele>235.660000</ele>
        <time>2009-08-23T09:15:36Z</time>
      </trkpt>
      <trkpt lat="50.722444" lon="6.530099">
        <ele>235.660000</ele>
        <time>2009-08-23T09:15:50Z</time>
      </trkpt>
      <trkpt lat="50.722284" lon="6.530099">
        <ele>235.180000</ele>
        <time>2009-08-23T09:16:04Z</time>
      </trkpt>
      <trkpt lat="50.722127" lon="6.530128">
        <ele>234.220000</ele>
        <time>2009-08-23T09:16:19Z</time>
      </trkpt>
      <trkpt lat="50.721981" lon="6.530171">
        <ele>234.220000</ele>
        <time>2009-08-23T09:16:36Z</time>
      </trkpt>
      <trkpt lat="50.721979" lon="6.530118">
        <ele>234.220000</ele>
        <time>2009-08-23T09:16:51Z</time>
      </trkpt>
      <trkpt lat="50.721967" lon="6.530025">
        <ele>233.740000</ele>
        <time>2009-08-23T09:16:55Z</time>
      </trkpt>
      <trkpt lat="50.721949" lon="6.529831">
        <ele>233.740000</ele>
        <time>2009-08-23T09:17:04Z</time>
      </trkpt>
      <trkpt lat="50.722026" lon="6.529565">
        <ele>233.740000</ele>
        <time>2009-08-23T09:17:20Z</time>
      </trkpt>
      <trkpt lat="50.722019" lon="6.529452">
        <ele>233.740000</ele>
        <time>2009-08-23T09:17:26Z</time>
      </trkpt>
      <trkpt lat="50.721998" lon="6.529387">
        <ele>233.260000</ele>
        <time>2009-08-23T09:17:45Z</time>
      </trkpt>
      <trkpt lat="50.721921" lon="6.529404">
        <ele>232.780000</ele>
        <time>2009-08-23T09:19:23Z</time>
      </trkpt>
      <trkpt lat="50.721887" lon="6.529458">
        <ele>233.260000</ele>
        <time>2009-08-23T09:20:02Z</time>
      </trkpt>
      <trkpt lat="50.721744" lon="6.529501">
        <ele>232.780000</ele>
        <time>2009-08-23T09:20:14Z</time>
      </trkpt>
      <trkpt lat="50.721558" lon="6.529506">
        <ele>233.260000</ele>
        <time>2009-08-23T09:20:29Z</time>
      </trkpt>
      <trkpt lat="50.721453" lon="6.529538">
        <ele>232.780000</ele>
        <time>2009-08-23T09:20:41Z</time>
      </trkpt>
      <trkpt lat="50.721196" lon="6.529670">
        <ele>233.260000</ele>
        <time>2009-08-23T09:21:00Z</time>
      </trkpt>
      <trkpt lat="50.721087" lon="6.529738">
        <ele>233.260000</ele>
        <time>2009-08-23T09:21:10Z</time>
      </trkpt>
      <trkpt lat="50.720941" lon="6.529818">
        <ele>233.260000</ele>
        <time>2009-08-23T09:21:24Z</time>
      </trkpt>
      <trkpt lat="50.720881" lon="6.529815">
        <ele>233.740000</ele>
        <time>2009-08-23T09:21:35Z</time>
      </trkpt>
      <trkpt lat="50.720854" lon="6.529828">
        <ele>232.780000</ele>
        <time>2009-08-23T09:21:42Z</time>
      </trkpt>
      <trkpt lat="50.720626" lon="6.529979">
        <ele>233.260000</ele>
        <time>2009-08-23T09:21:59Z</time>
      </trkpt>
      <trkpt lat="50.720515" lon="6.530055">
        <ele>233.740000</ele>
        <time>2009-08-23T09:22:13Z</time>
      </trkpt>
      <trkpt lat="50.720486" lon="6.530079">
        <ele>233.260000</ele>
        <time>2009-08-23T09:22:15Z</time>
      </trkpt>
      <trkpt lat="50.720297" lon="6.530168">
        <ele>233.740000</ele>
        <time>2009-08-23T09:22:29Z</time>
      </trkpt>
      <trkpt lat="50.720123" lon="6.530296">
        <ele>233.740000</ele>
        <time>2009-08-23T09:22:42Z</time>
      </trkpt>
      <trkpt lat="50.719961" lon="6.530415">
        <ele>234.700000</ele>
        <time>2009-08-23T09:22:56Z</time>
      </trkpt>
      <trkpt lat="50.719820" lon="6.530524">
        <ele>233.740000</ele>
        <time>2009-08-23T09:23:10Z</time>
      </trkpt>
      <trkpt lat="50.719679" lon="6.530623">
        <ele>234.220000</ele>
        <time>2009-08-23T09:23:23Z</time>
      </trkpt>
      <trkpt lat="50.719517" lon="6.530767">
        <ele>234.220000</ele>
        <time>2009-08-23T09:23:37Z</time>
      </trkpt>
      <trkpt lat="50.719479" lon="6.530807">
        <ele>234.220000</ele>
        <time>2009-08-23T09:23:40Z</time>
      </trkpt>
      <trkpt lat="50.719282" lon="6.530918">
        <ele>234.700000</ele>
        <time>2009-08-23T09:23:55Z</time>
      </trkpt>
      <trkpt lat="50.719217" lon="6.530945">
        <ele>234.700000</ele>
        <time>2009-08-23T09:24:00Z</time>
      </trkpt>
      <trkpt lat="50.719008" lon="6.531024">
        <ele>234.700000</ele>
        <time>2009-08-23T09:24:15Z</time>
      </trkpt>
      <trkpt lat="50.718836" lon="6.531092">
        <ele>235.180000</ele>
        <time>2009-08-23T09:24:29Z</time>
      </trkpt>
      <trkpt lat="50.718732" lon="6.531134">
        <ele>235.180000</ele>
        <time>2009-08-23T09:24:41Z</time>
      </trkpt>
      <trkpt lat="50.718597" lon="6.531192">
        <ele>235.660000</ele>
        <time>2009-08-23T09:24:53Z</time>
      </trkpt>
      <trkpt lat="50.718430" lon="6.531272">
        <ele>235.180000</ele>
        <time>2009-08-23T09:25:07Z</time>
      </trkpt>
      <trkpt lat="50.718253" lon="6.531384">
        <ele>236.140000</ele>
        <time>2009-08-23T09:25:22Z</time>
      </trkpt>
      <trkpt lat="50.718105" lon="6.531420">
        <ele>235.660000</ele>
        <time>2009-08-23T09:25:37Z</time>
      </trkpt>
      <trkpt lat="50.717953" lon="6.531464">
        <ele>236.140000</ele>
        <time>2009-08-23T09:25:53Z</time>
      </trkpt>
      <trkpt lat="50.717935" lon="6.531469">
        <ele>235.180000</ele>
        <time>2009-08-23T09:26:09Z</time>
      </trkpt>
      <trkpt lat="50.717884" lon="6.531499">
        <ele>236.620000</ele>
        <time>2009-08-23T09:26:22Z</time>
      </trkpt>
      <trkpt lat="50.717786" lon="6.531539">
        <ele>235.660000</ele>
        <time>2009-08-23T09:26:34Z</time>
      </trkpt>
      <trkpt lat="50.717863" lon="6.531486">
        <ele>235.660000</ele>
        <time>2009-08-23T09:26:51Z</time>
      </trkpt>
      <trkpt lat="50.717814" lon="6.531519">
        <ele>235.660000</ele>
        <time>2009-08-23T09:27:11Z</time>
      </trkpt>
      <trkpt lat="50.717793" lon="6.531539">
        <ele>235.660000</ele>
        <time>2009-08-23T09:27:31Z</time>
      </trkpt>
      <trkpt lat="50.717616" lon="6.531494">
        <ele>235.180000</ele>
        <time>2009-08-23T09:27:57Z</time>
      </trkpt>
      <trkpt lat="50.717539" lon="6.531604">
        <ele>235.660000</ele>
        <time>2009-08-23T09:28:18Z</time>
      </trkpt>
      <trkpt lat="50.717541" lon="6.531623">
        <ele>234.700000</ele>
        <time>2009-08-23T09:28:39Z</time>
      </trkpt>
      <trkpt lat="50.717504" lon="6.531681">
        <ele>235.180000</ele>
        <time>2009-08-23T09:29:07Z</time>
      </trkpt>
      <trkpt lat="50.717373" lon="6.531784">
        <ele>236.140000</ele>
        <time>2009-08-23T09:29:23Z</time>
      </trkpt>
      <trkpt lat="50.717211" lon="6.531849">
        <ele>235.660000</ele>
        <time>2009-08-23T09:29:41Z</time>
      </trkpt>
      <trkpt lat="50.717088" lon="6.531871">
        <ele>236.140000</ele>
        <time>2009-08-23T09:30:06Z</time>
      </trkpt>
      <trkpt lat="50.716920" lon="6.531997">
        <ele>236.140000</ele>
        <time>2009-08-23T09:30:21Z</time>
      </trkpt>
      <trkpt lat="50.716827" lon="6.532032">
        <ele>236.620000</ele>
        <time>2009-08-23T09:30:28Z</time>
      </trkpt>
      <trkpt lat="50.716713" lon="6.532171">
        <ele>236.620000</ele>
        <time>2009-08-23T09:30:39Z</time>
      </trkpt>
      <trkpt lat="50.716646" lon="6.532296">
        <ele>236.620000</ele>
        <time>2009-08-23T09:30:49Z</time>
      </trkpt>
      <trkpt lat="50.716599" lon="6.532463">
        <ele>236.620000</ele>
        <time>2009-08-23T09:31:01Z</time>
      </trkpt>
      <trkpt lat="50.716468" lon="6.532690">
        <ele>236.620000</ele>
        <time>2009-08-23T09:31:15Z</time>
      </trkpt>
      <trkpt lat="50.716448" lon="6.532743">
        <ele>236.620000</ele>
        <time>2009-08-23T09:31:19Z</time>
      </trkpt>
      <trkpt lat="50.716338" lon="6.532881">
        <ele>237.100000</ele>
        <time>2009-08-23T09:31:29Z</time>
      </trkpt>
      <trkpt lat="50.716319" lon="6.532949">
        <ele>236.620000</ele>
        <time>2009-08-23T09:31:34Z</time>
      </trkpt>
      <trkpt lat="50.716310" lon="6.533022">
        <ele>236.620000</ele>
        <time>2009-08-23T09:31:38Z</time>
      </trkpt>
      <trkpt lat="50.716201" lon="6.533211">
        <ele>236.620000</ele>
        <time>2009-08-23T09:31:48Z</time>
      </trkpt>
      <trkpt lat="50.716128" lon="6.533324">
        <ele>237.100000</ele>
        <time>2009-08-23T09:31:56Z</time>
      </trkpt>
      <trkpt lat="50.716111" lon="6.533351">
        <ele>237.100000</ele>
        <time>2009-08-23T09:31:58Z</time>
      </trkpt>
      <trkpt lat="50.716092" lon="6.533489">
        <ele>236.620000</ele>
        <time>2009-08-23T09:32:07Z</time>
      </trkpt>
      <trkpt lat="50.716063" lon="6.533584">
        <ele>237.100000</ele>
        <time>2009-08-23T09:32:22Z</time>
      </trkpt>
      <trkpt lat="50.716065" lon="6.533623">
        <ele>236.620000</ele>
        <time>2009-08-23T09:32:28Z</time>
      </trkpt>
      <trkpt lat="50.716142" lon="6.533761">
        <ele>236.620000</ele>
        <time>2009-08-23T09:32:34Z</time>
      </trkpt>
      <trkpt lat="50.716329" lon="6.534013">
        <ele>236.140000</ele>
        <time>2009-08-23T09:32:49Z</time>
      </trkpt>
      <trkpt lat="50.716377" lon="6.534214">
        <ele>236.140000</ele>
        <time>2009-08-23T09:33:00Z</time>
      </trkpt>
      <trkpt lat="50.716411" lon="6.534300">
        <ele>236.140000</ele>
        <time>2009-08-23T09:33:04Z</time>
      </trkpt>
      <trkpt lat="50.716282" lon="6.534565">
        <ele>235.660000</ele>
        <time>2009-08-23T09:33:18Z</time>
      </trkpt>
      <trkpt lat="50.716187" lon="6.534688">
        <ele>235.180000</ele>
        <time>2009-08-23T09:33:27Z</time>
      </trkpt>
      <trkpt lat="50.716099" lon="6.534950">
        <ele>235.660000</ele>
        <time>2009-08-23T09:33:40Z</time>
      </trkpt>
      <trkpt lat="50.715936" lon="6.535192">
        <ele>235.660000</ele>
        <time>2009-08-23T09:33:56Z</time>
      </trkpt>
      <trkpt lat="50.715834" lon="6.535430">
        <ele>234.700000</ele>
        <time>2009-08-23T09:34:10Z</time>
      </trkpt>
      <trkpt lat="50.715817" lon="6.535492">
        <ele>234.700000</ele>
        <time>2009-08-23T09:34:13Z</time>
      </trkpt>
      <trkpt lat="50.715706" lon="6.535656">
        <ele>234.700000</ele>
        <time>2009-08-23T09:34:26Z</time>
      </trkpt>
      <trkpt lat="50.715555" lon="6.535760">
        <ele>234.220000</ele>
        <time>2009-08-23T09:34:40Z</time>
      </trkpt>
      <trkpt lat="50.715441" lon="6.535804">
        <ele>234.220000</ele>
        <time>2009-08-23T09:34:51Z</time>
      </trkpt>
      <trkpt lat="50.715373" lon="6.535842">
        <ele>234.220000</ele>
        <time>2009-08-23T09:34:56Z</time>
      </trkpt>
      <trkpt lat="50.715289" lon="6.535866">
        <ele>234.220000</ele>
        <time>2009-08-23T09:35:04Z</time>
      </trkpt>
      <trkpt lat="50.715089" lon="6.536008">
        <ele>233.740000</ele>
        <time>2009-08-23T09:35:20Z</time>
      </trkpt>
      <trkpt lat="50.714927" lon="6.536103">
        <ele>234.220000</ele>
        <time>2009-08-23T09:35:34Z</time>
      </trkpt>
      <trkpt lat="50.714847" lon="6.536204">
        <ele>235.180000</ele>
        <time>2009-08-23T09:35:44Z</time>
      </trkpt>
      <trkpt lat="50.714734" lon="6.536307">
        <ele>235.180000</ele>
        <time>2009-08-23T09:35:55Z</time>
      </trkpt>
      <trkpt lat="50.714589" lon="6.536441">
        <ele>235.660000</ele>
        <time>2009-08-23T09:36:08Z</time>
      </trkpt>
      <trkpt lat="50.714429" lon="6.536518">
        <ele>236.620000</ele>
        <time>2009-08-23T09:36:22Z</time>
      </trkpt>
      <trkpt lat="50.714227" lon="6.536598">
        <ele>235.660000</ele>
        <time>2009-08-23T09:36:35Z</time>
      </trkpt>
      <trkpt lat="50.714033" lon="6.536669">
        <ele>235.660000</ele>
        <time>2009-08-23T09:36:48Z</time>
      </trkpt>
      <trkpt lat="50.713859" lon="6.536817">
        <ele>236.620000</ele>
        <time>2009-08-23T09:37:02Z</time>
      </trkpt>
      <trkpt lat="50.713683" lon="6.536950">
        <ele>235.660000</ele>
        <time>2009-08-23T09:37:15Z</time>
      </trkpt>
      <trkpt lat="50.713555" lon="6.537104">
        <ele>235.660000</ele>
        <time>2009-08-23T09:37:29Z</time>
      </trkpt>
      <trkpt lat="50.713466" lon="6.537211">
        <ele>235.180000</ele>
        <time>2009-08-23T09:37:39Z</time>
      </trkpt>
      <trkpt lat="50.713267" lon="6.537351">
        <ele>236.620000</ele>
        <time>2009-08-23T09:37:54Z</time>
      </trkpt>
      <trkpt lat="50.713100" lon="6.537491">
        <ele>236.140000</ele>
        <time>2009-08-23T09:38:07Z</time>
      </trkpt>
      <trkpt lat="50.712926" lon="6.537622">
        <ele>236.620000</ele>
        <time>2009-08-23T09:38:22Z</time>
      </trkpt>
      <trkpt lat="50.712763" lon="6.537735">
        <ele>237.580000</ele>
        <time>2009-08-23T09:38:35Z</time>
      </trkpt>
      <trkpt lat="50.712638" lon="6.537841">
        <ele>238.060000</ele>
        <time>2009-08-23T09:38:47Z</time>
      </trkpt>
      <trkpt lat="50.712444" lon="6.537996">
        <ele>237.100000</ele>
        <time>2009-08-23T09:39:02Z</time>
      </trkpt>
      <trkpt lat="50.712390" lon="6.538035">
        <ele>237.100000</ele>
        <time>2009-08-23T09:39:07Z</time>
      </trkpt>
      <trkpt lat="50.712222" lon="6.538182">
        <ele>237.580000</ele>
        <time>2009-08-23T09:39:20Z</time>
      </trkpt>
      <trkpt lat="50.712081" lon="6.538309">
        <ele>238.060000</ele>
        <time>2009-08-23T09:39:33Z</time>
      </trkpt>
      <trkpt lat="50.711950" lon="6.538397">
        <ele>239.020000</ele>
        <time>2009-08-23T09:39:45Z</time>
      </trkpt>
      <trkpt lat="50.711899" lon="6.538419">
        <ele>239.510000</ele>
        <time>2009-08-23T09:39:48Z</time>
      </trkpt>
      <trkpt lat="50.711732" lon="6.538578">
        <ele>239.510000</ele>
        <time>2009-08-23T09:40:03Z</time>
      </trkpt>
      <trkpt lat="50.711568" lon="6.538686">
        <ele>239.990000</ele>
        <time>2009-08-23T09:40:16Z</time>
      </trkpt>
      <trkpt lat="50.711388" lon="6.538752">
        <ele>239.990000</ele>
        <time>2009-08-23T09:40:29Z</time>
      </trkpt>
      <trkpt lat="50.711225" lon="6.538883">
        <ele>240.950000</ele>
        <time>2009-08-23T09:40:44Z</time>
      </trkpt>
      <trkpt lat="50.711132" lon="6.538970">
        <ele>240.950000</ele>
        <time>2009-08-23T09:40:53Z</time>
      </trkpt>
      <trkpt lat="50.711095" lon="6.538995">
        <ele>241.430000</ele>
        <time>2009-08-23T09:40:56Z</time>
      </trkpt>
      <trkpt lat="50.711009" lon="6.539048">
        <ele>241.430000</ele>
        <time>2009-08-23T09:41:03Z</time>
      </trkpt>
      <trkpt lat="50.710815" lon="6.539171">
        <ele>241.910000</ele>
        <time>2009-08-23T09:41:17Z</time>
      </trkpt>
      <trkpt lat="50.710764" lon="6.539213">
        <ele>241.430000</ele>
        <time>2009-08-23T09:41:22Z</time>
      </trkpt>
      <trkpt lat="50.710705" lon="6.539246">
        <ele>241.910000</ele>
        <time>2009-08-23T09:41:27Z</time>
      </trkpt>
      <trkpt lat="50.710546" lon="6.539388">
        <ele>241.430000</ele>
        <time>2009-08-23T09:41:40Z</time>
      </trkpt>
      <trkpt lat="50.710394" lon="6.539488">
        <ele>241.910000</ele>
        <time>2009-08-23T09:41:52Z</time>
      </trkpt>
      <trkpt lat="50.710267" lon="6.539649">
        <ele>241.430000</ele>
        <time>2009-08-23T09:42:07Z</time>
      </trkpt>
      <trkpt lat="50.710254" lon="6.539691">
        <ele>241.910000</ele>
        <time>2009-08-23T09:42:09Z</time>
      </trkpt>
      <trkpt lat="50.710069" lon="6.539809">
        <ele>241.910000</ele>
        <time>2009-08-23T09:42:24Z</time>
      </trkpt>
      <trkpt lat="50.709912" lon="6.539939">
        <ele>241.430000</ele>
        <time>2009-08-23T09:42:37Z</time>
      </trkpt>
      <trkpt lat="50.709891" lon="6.539935">
        <ele>241.430000</ele>
        <time>2009-08-23T09:42:41Z</time>
      </trkpt>
      <trkpt lat="50.709809" lon="6.539927">
        <ele>241.430000</ele>
        <time>2009-08-23T09:42:47Z</time>
      </trkpt>
      <trkpt lat="50.709786" lon="6.539949">
        <ele>241.430000</ele>
        <time>2009-08-23T09:42:50Z</time>
      </trkpt>
      <trkpt lat="50.709741" lon="6.539936">
        <ele>241.430000</ele>
        <time>2009-08-23T09:43:09Z</time>
      </trkpt>
      <trkpt lat="50.709772" lon="6.539969">
        <ele>240.470000</ele>
        <time>2009-08-23T09:45:36Z</time>
      </trkpt>
      <trkpt lat="50.709798" lon="6.539994">
        <ele>240.470000</ele>
        <time>2009-08-23T09:45:43Z</time>
      </trkpt>
      <trkpt lat="50.709842" lon="6.540097">
        <ele>240.470000</ele>
        <time>2009-08-23T09:45:51Z</time>
      </trkpt>
      <trkpt lat="50.709887" lon="6.540194">
        <ele>239.990000</ele>
        <time>2009-08-23T09:45:59Z</time>
      </trkpt>
      <trkpt lat="50.709943" lon="6.540295">
        <ele>240.470000</ele>
        <time>2009-08-23T09:46:05Z</time>
      </trkpt>
      <trkpt lat="50.709972" lon="6.540376">
        <ele>239.990000</ele>
        <time>2009-08-23T09:46:09Z</time>
      </trkpt>
      <trkpt lat="50.709985" lon="6.540619">
        <ele>239.990000</ele>
        <time>2009-08-23T09:46:21Z</time>
      </trkpt>
      <trkpt lat="50.709969" lon="6.540776">
        <ele>239.510000</ele>
        <time>2009-08-23T09:46:31Z</time>
      </trkpt>
      <trkpt lat="50.709944" lon="6.540822">
        <ele>239.510000</ele>
        <time>2009-08-23T09:46:34Z</time>
      </trkpt>
      <trkpt lat="50.709932" lon="6.540918">
        <ele>239.510000</ele>
        <time>2009-08-23T09:46:39Z</time>
      </trkpt>
      <trkpt lat="50.709899" lon="6.541021">
        <ele>239.510000</ele>
        <time>2009-08-23T09:46:45Z</time>
      </trkpt>
      <trkpt lat="50.709897" lon="6.541101">
        <ele>239.510000</ele>
        <time>2009-08-23T09:46:49Z</time>
      </trkpt>
      <trkpt lat="50.709884" lon="6.541124">
        <ele>239.510000</ele>
        <time>2009-08-23T09:46:51Z</time>
      </trkpt>
      <trkpt lat="50.709883" lon="6.541185">
        <ele>239.020000</ele>
        <time>2009-08-23T09:46:54Z</time>
      </trkpt>
      <trkpt lat="50.709792" lon="6.541379">
        <ele>239.020000</ele>
        <time>2009-08-23T09:47:07Z</time>
      </trkpt>
      <trkpt lat="50.709733" lon="6.541462">
        <ele>239.020000</ele>
        <time>2009-08-23T09:47:12Z</time>
      </trkpt>
      <trkpt lat="50.709690" lon="6.541590">
        <ele>239.020000</ele>
        <time>2009-08-23T09:47:18Z</time>
      </trkpt>
      <trkpt lat="50.709758" lon="6.541778">
        <ele>239.020000</ele>
        <time>2009-08-23T09:47:27Z</time>
      </trkpt>
      <trkpt lat="50.709749" lon="6.541902">
        <ele>238.540000</ele>
        <time>2009-08-23T09:47:34Z</time>
      </trkpt>
      <trkpt lat="50.709754" lon="6.542019">
        <ele>238.540000</ele>
        <time>2009-08-23T09:47:40Z</time>
      </trkpt>
      <trkpt lat="50.709719" lon="6.542171">
        <ele>238.540000</ele>
        <time>2009-08-23T09:47:46Z</time>
      </trkpt>
      <trkpt lat="50.709716" lon="6.542221">
        <ele>238.540000</ele>
        <time>2009-08-23T09:47:49Z</time>
      </trkpt>
      <trkpt lat="50.709688" lon="6.542442">
        <ele>238.540000</ele>
        <time>2009-08-23T09:48:01Z</time>
      </trkpt>
      <trkpt lat="50.709767" lon="6.542693">
        <ele>237.580000</ele>
        <time>2009-08-23T09:48:14Z</time>
      </trkpt>
      <trkpt lat="50.709758" lon="6.542953">
        <ele>237.100000</ele>
        <time>2009-08-23T09:48:26Z</time>
      </trkpt>
      <trkpt lat="50.709760" lon="6.543005">
        <ele>237.100000</ele>
        <time>2009-08-23T09:48:29Z</time>
      </trkpt>
      <trkpt lat="50.709860" lon="6.543354">
        <ele>236.140000</ele>
        <time>2009-08-23T09:48:47Z</time>
      </trkpt>
      <trkpt lat="50.710063" lon="6.543746">
        <ele>235.180000</ele>
        <time>2009-08-23T09:49:08Z</time>
      </trkpt>
      <trkpt lat="50.710070" lon="6.543771">
        <ele>234.700000</ele>
        <time>2009-08-23T09:49:09Z</time>
      </trkpt>
      <trkpt lat="50.710095" lon="6.543851">
        <ele>234.700000</ele>
        <time>2009-08-23T09:49:13Z</time>
      </trkpt>
      <trkpt lat="50.710144" lon="6.543907">
        <ele>234.700000</ele>
        <time>2009-08-23T09:49:19Z</time>
      </trkpt>
      <trkpt lat="50.710162" lon="6.543918">
        <ele>234.220000</ele>
        <time>2009-08-23T09:49:21Z</time>
      </trkpt>
      <trkpt lat="50.710296" lon="6.544051">
        <ele>234.220000</ele>
        <time>2009-08-23T09:49:31Z</time>
      </trkpt>
      <trkpt lat="50.710440" lon="6.544192">
        <ele>234.220000</ele>
        <time>2009-08-23T09:49:43Z</time>
      </trkpt>
      <trkpt lat="50.710567" lon="6.544373">
        <ele>233.740000</ele>
        <time>2009-08-23T09:49:58Z</time>
      </trkpt>
      <trkpt lat="50.710643" lon="6.544518">
        <ele>233.740000</ele>
        <time>2009-08-23T09:50:10Z</time>
      </trkpt>
      <trkpt lat="50.710877" lon="6.544838">
        <ele>233.740000</ele>
        <time>2009-08-23T09:50:31Z</time>
      </trkpt>
      <trkpt lat="50.710966" lon="6.544905">
        <ele>233.740000</ele>
        <time>2009-08-23T09:50:44Z</time>
      </trkpt>
      <trkpt lat="50.711198" lon="6.545275">
        <ele>233.740000</ele>
        <time>2009-08-23T09:51:07Z</time>
      </trkpt>
      <trkpt lat="50.711261" lon="6.545757">
        <ele>234.220000</ele>
        <time>2009-08-23T09:51:28Z</time>
      </trkpt>
      <trkpt lat="50.711271" lon="6.545806">
        <ele>234.700000</ele>
        <time>2009-08-23T09:51:30Z</time>
      </trkpt>
      <trkpt lat="50.711333" lon="6.546066">
        <ele>234.700000</ele>
        <time>2009-08-23T09:51:42Z</time>
      </trkpt>
      <trkpt lat="50.711355" lon="6.546162">
        <ele>234.700000</ele>
        <time>2009-08-23T09:51:47Z</time>
      </trkpt>
      <trkpt lat="50.711368" lon="6.546197">
        <ele>234.220000</ele>
        <time>2009-08-23T09:51:49Z</time>
      </trkpt>
      <trkpt lat="50.711380" lon="6.546410">
        <ele>234.700000</ele>
        <time>2009-08-23T09:51:58Z</time>
      </trkpt>
      <trkpt lat="50.711422" lon="6.546530">
        <ele>234.220000</ele>
        <time>2009-08-23T09:52:05Z</time>
      </trkpt>
      <trkpt lat="50.711387" lon="6.546723">
        <ele>234.220000</ele>
        <time>2009-08-23T09:52:15Z</time>
      </trkpt>
      <trkpt lat="50.711411" lon="6.546839">
        <ele>234.700000</ele>
        <time>2009-08-23T09:52:20Z</time>
      </trkpt>
      <trkpt lat="50.711406" lon="6.546913">
        <ele>234.700000</ele>
        <time>2009-08-23T09:52:23Z</time>
      </trkpt>
      <trkpt lat="50.711410" lon="6.547003">
        <ele>234.220000</ele>
        <time>2009-08-23T09:52:27Z</time>
      </trkpt>
      <trkpt lat="50.711412" lon="6.547236">
        <ele>234.220000</ele>
        <time>2009-08-23T09:52:37Z</time>
      </trkpt>
      <trkpt lat="50.711381" lon="6.547314">
        <ele>234.220000</ele>
        <time>2009-08-23T09:52:42Z</time>
      </trkpt>
      <trkpt lat="50.711372" lon="6.547405">
        <ele>233.740000</ele>
        <time>2009-08-23T09:52:47Z</time>
      </trkpt>
      <trkpt lat="50.711353" lon="6.547648">
        <ele>233.260000</ele>
        <time>2009-08-23T09:52:59Z</time>
      </trkpt>
      <trkpt lat="50.711406" lon="6.547809">
        <ele>232.780000</ele>
        <time>2009-08-23T09:53:09Z</time>
      </trkpt>
      <trkpt lat="50.711408" lon="6.548099">
        <ele>232.300000</ele>
        <time>2009-08-23T09:53:25Z</time>
      </trkpt>
      <trkpt lat="50.711440" lon="6.548399">
        <ele>231.810000</ele>
        <time>2009-08-23T09:53:39Z</time>
      </trkpt>
      <trkpt lat="50.711445" lon="6.548509">
        <ele>231.810000</ele>
        <time>2009-08-23T09:53:44Z</time>
      </trkpt>
      <trkpt lat="50.711450" lon="6.548608">
        <ele>231.810000</ele>
        <time>2009-08-23T09:53:48Z</time>
      </trkpt>
      <trkpt lat="50.711435" lon="6.548717">
        <ele>231.330000</ele>
        <time>2009-08-23T09:53:54Z</time>
      </trkpt>
      <trkpt lat="50.711445" lon="6.548743">
        <ele>231.330000</ele>
        <time>2009-08-23T09:53:56Z</time>
      </trkpt>
      <trkpt lat="50.711414" lon="6.549067">
        <ele>231.330000</ele>
        <time>2009-08-23T09:54:12Z</time>
      </trkpt>
      <trkpt lat="50.711410" lon="6.549349">
        <ele>231.330000</ele>
        <time>2009-08-23T09:54:25Z</time>
      </trkpt>
      <trkpt lat="50.711405" lon="6.549614">
        <ele>230.850000</ele>
        <time>2009-08-23T09:54:39Z</time>
      </trkpt>
      <trkpt lat="50.711598" lon="6.549764">
        <ele>230.370000</ele>
        <time>2009-08-23T09:54:56Z</time>
      </trkpt>
      <trkpt lat="50.711626" lon="6.549833">
        <ele>229.890000</ele>
        <time>2009-08-23T09:55:01Z</time>
      </trkpt>
      <trkpt lat="50.711877" lon="6.550110">
        <ele>228.930000</ele>
        <time>2009-08-23T09:55:19Z</time>
      </trkpt>
      <trkpt lat="50.711948" lon="6.550203">
        <ele>227.970000</ele>
        <time>2009-08-23T09:55:27Z</time>
      </trkpt>
      <trkpt lat="50.712076" lon="6.550323">
        <ele>227.010000</ele>
        <time>2009-08-23T09:55:40Z</time>
      </trkpt>
      <trkpt lat="50.712280" lon="6.550676">
        <ele>227.010000</ele>
        <time>2009-08-23T09:56:01Z</time>
      </trkpt>
      <trkpt lat="50.712423" lon="6.551054">
        <ele>226.050000</ele>
        <time>2009-08-23T09:56:23Z</time>
      </trkpt>
      <trkpt lat="50.712629" lon="6.551375">
        <ele>225.570000</ele>
        <time>2009-08-23T09:56:43Z</time>
      </trkpt>
      <trkpt lat="50.712676" lon="6.551425">
        <ele>225.570000</ele>
        <time>2009-08-23T09:56:47Z</time>
      </trkpt>
      <trkpt lat="50.712884" lon="6.551646">
        <ele>224.610000</ele>
        <time>2009-08-23T09:57:08Z</time>
      </trkpt>
      <trkpt lat="50.713048" lon="6.551708">
        <ele>224.120000</ele>
        <time>2009-08-23T09:57:27Z</time>
      </trkpt>
      <trkpt lat="50.713104" lon="6.551691">
        <ele>224.120000</ele>
        <time>2009-08-23T09:57:30Z</time>
      </trkpt>
      <trkpt lat="50.713291" lon="6.551740">
        <ele>223.160000</ele>
        <time>2009-08-23T09:57:44Z</time>
      </trkpt>
      <trkpt lat="50.713384" lon="6.551716">
        <ele>223.160000</ele>
        <time>2009-08-23T09:57:50Z</time>
      </trkpt>
      <trkpt lat="50.713637" lon="6.551655">
        <ele>222.680000</ele>
        <time>2009-08-23T09:58:06Z</time>
      </trkpt>
      <trkpt lat="50.713683" lon="6.551642">
        <ele>222.680000</ele>
        <time>2009-08-23T09:58:09Z</time>
      </trkpt>
      <trkpt lat="50.713846" lon="6.551630">
        <ele>221.720000</ele>
        <time>2009-08-23T09:58:21Z</time>
      </trkpt>
      <trkpt lat="50.714049" lon="6.551553">
        <ele>221.240000</ele>
        <time>2009-08-23T09:58:38Z</time>
      </trkpt>
      <trkpt lat="50.714240" lon="6.551535">
        <ele>220.760000</ele>
        <time>2009-08-23T09:58:51Z</time>
      </trkpt>
      <trkpt lat="50.714491" lon="6.551536">
        <ele>219.800000</ele>
        <time>2009-08-23T09:59:08Z</time>
      </trkpt>
      <trkpt lat="50.714668" lon="6.551538">
        <ele>219.800000</ele>
        <time>2009-08-23T09:59:20Z</time>
      </trkpt>
      <trkpt lat="50.714785" lon="6.551523">
        <ele>219.320000</ele>
        <time>2009-08-23T09:59:33Z</time>
      </trkpt>
      <trkpt lat="50.714969" lon="6.551524">
        <ele>219.320000</ele>
        <time>2009-08-23T09:59:46Z</time>
      </trkpt>
      <trkpt lat="50.715243" lon="6.551542">
        <ele>218.840000</ele>
        <time>2009-08-23T10:00:05Z</time>
      </trkpt>
      <trkpt lat="50.715268" lon="6.551539">
        <ele>218.840000</ele>
        <time>2009-08-23T10:00:07Z</time>
      </trkpt>
      <trkpt lat="50.715445" lon="6.551541">
        <ele>218.360000</ele>
        <time>2009-08-23T10:00:21Z</time>
      </trkpt>
      <trkpt lat="50.715525" lon="6.551510">
        <ele>218.360000</ele>
        <time>2009-08-23T10:00:37Z</time>
      </trkpt>
      <trkpt lat="50.715539" lon="6.551762">
        <ele>218.360000</ele>
        <time>2009-08-23T10:01:08Z</time>
      </trkpt>
      <trkpt lat="50.715570" lon="6.552091">
        <ele>218.360000</ele>
        <time>2009-08-23T10:01:22Z</time>
      </trkpt>
      <trkpt lat="50.715562" lon="6.552168">
        <ele>218.360000</ele>
        <time>2009-08-23T10:01:27Z</time>
      </trkpt>
      <trkpt lat="50.715650" lon="6.552331">
        <ele>217.880000</ele>
        <time>2009-08-23T10:01:39Z</time>
      </trkpt>
      <trkpt lat="50.715788" lon="6.552638">
        <ele>217.880000</ele>
        <time>2009-08-23T10:01:56Z</time>
      </trkpt>
      <trkpt lat="50.715930" lon="6.552781">
        <ele>218.360000</ele>
        <time>2009-08-23T10:02:10Z</time>
      </trkpt>
      <trkpt lat="50.716056" lon="6.552932">
        <ele>217.880000</ele>
        <time>2009-08-23T10:02:24Z</time>
      </trkpt>
      <trkpt lat="50.716305" lon="6.553020">
        <ele>217.400000</ele>
        <time>2009-08-23T10:02:43Z</time>
      </trkpt>
      <trkpt lat="50.716595" lon="6.553057">
        <ele>216.910000</ele>
        <time>2009-08-23T10:03:05Z</time>
      </trkpt>
      <trkpt lat="50.716770" lon="6.552847">
        <ele>216.430000</ele>
        <time>2009-08-23T10:03:22Z</time>
      </trkpt>
      <trkpt lat="50.716796" lon="6.552814">
        <ele>216.430000</ele>
        <time>2009-08-23T10:03:25Z</time>
      </trkpt>
      <trkpt lat="50.716927" lon="6.552702">
        <ele>216.430000</ele>
        <time>2009-08-23T10:03:39Z</time>
      </trkpt>
      <trkpt lat="50.717150" lon="6.552600">
        <ele>215.950000</ele>
        <time>2009-08-23T10:03:52Z</time>
      </trkpt>
      <trkpt lat="50.717258" lon="6.552482">
        <ele>215.950000</ele>
        <time>2009-08-23T10:04:03Z</time>
      </trkpt>
      <trkpt lat="50.717295" lon="6.552212">
        <ele>215.470000</ele>
        <time>2009-08-23T10:04:15Z</time>
      </trkpt>
      <trkpt lat="50.717308" lon="6.552082">
        <ele>215.470000</ele>
        <time>2009-08-23T10:04:22Z</time>
      </trkpt>
      <trkpt lat="50.717305" lon="6.551974">
        <ele>215.470000</ele>
        <time>2009-08-23T10:04:28Z</time>
      </trkpt>
      <trkpt lat="50.717295" lon="6.551693">
        <ele>215.950000</ele>
        <time>2009-08-23T10:04:41Z</time>
      </trkpt>
      <trkpt lat="50.717302" lon="6.551525">
        <ele>215.950000</ele>
        <time>2009-08-23T10:04:49Z</time>
      </trkpt>
      <trkpt lat="50.717279" lon="6.551473">
        <ele>215.950000</ele>
        <time>2009-08-23T10:04:52Z</time>
      </trkpt>
      <trkpt lat="50.717244" lon="6.551280">
        <ele>215.950000</ele>
        <time>2009-08-23T10:05:01Z</time>
      </trkpt>
      <trkpt lat="50.717261" lon="6.551148">
        <ele>215.950000</ele>
        <time>2009-08-23T10:05:07Z</time>
      </trkpt>
      <trkpt lat="50.717302" lon="6.551109">
        <ele>215.950000</ele>
        <time>2009-08-23T10:05:11Z</time>
      </trkpt>
      <trkpt lat="50.717386" lon="6.551052">
        <ele>215.950000</ele>
        <time>2009-08-23T10:05:17Z</time>
      </trkpt>
      <trkpt lat="50.717586" lon="6.550967">
        <ele>214.990000</ele>
        <time>2009-08-23T10:05:35Z</time>
      </trkpt>
      <trkpt lat="50.717656" lon="6.550903">
        <ele>214.990000</ele>
        <time>2009-08-23T10:05:41Z</time>
      </trkpt>
      <trkpt lat="50.717708" lon="6.550860">
        <ele>214.510000</ele>
        <time>2009-08-23T10:05:45Z</time>
      </trkpt>
      <trkpt lat="50.717936" lon="6.550798">
        <ele>214.510000</ele>
        <time>2009-08-23T10:05:59Z</time>
      </trkpt>
      <trkpt lat="50.718121" lon="6.550721">
        <ele>214.030000</ele>
        <time>2009-08-23T10:06:11Z</time>
      </trkpt>
      <trkpt lat="50.718206" lon="6.550704">
        <ele>213.550000</ele>
        <time>2009-08-23T10:06:18Z</time>
      </trkpt>
      <trkpt lat="50.718340" lon="6.550650">
        <ele>213.550000</ele>
        <time>2009-08-23T10:06:31Z</time>
      </trkpt>
      <trkpt lat="50.718479" lon="6.550524">
        <ele>212.590000</ele>
        <time>2009-08-23T10:06:45Z</time>
      </trkpt>
      <trkpt lat="50.718541" lon="6.550400">
        <ele>212.590000</ele>
        <time>2009-08-23T10:06:52Z</time>
      </trkpt>
      <trkpt lat="50.718639" lon="6.550242">
        <ele>212.590000</ele>
        <time>2009-08-23T10:07:02Z</time>
      </trkpt>
      <trkpt lat="50.718834" lon="6.550102">
        <ele>212.110000</ele>
        <time>2009-08-23T10:07:18Z</time>
      </trkpt>
      <trkpt lat="50.719053" lon="6.550006">
        <ele>213.070000</ele>
        <time>2009-08-23T10:07:34Z</time>
      </trkpt>
      <trkpt lat="50.719240" lon="6.549796">
        <ele>214.030000</ele>
        <time>2009-08-23T10:07:53Z</time>
      </trkpt>
      <trkpt lat="50.719457" lon="6.549606">
        <ele>215.950000</ele>
        <time>2009-08-23T10:08:13Z</time>
      </trkpt>
      <trkpt lat="50.719655" lon="6.549447">
        <ele>216.430000</ele>
        <time>2009-08-23T10:08:28Z</time>
      </trkpt>
      <trkpt lat="50.719698" lon="6.549361">
        <ele>216.430000</ele>
        <time>2009-08-23T10:08:34Z</time>
      </trkpt>
      <trkpt lat="50.719770" lon="6.549069">
        <ele>217.400000</ele>
        <time>2009-08-23T10:08:47Z</time>
      </trkpt>
      <trkpt lat="50.719801" lon="6.548922">
        <ele>216.910000</ele>
        <time>2009-08-23T10:08:58Z</time>
      </trkpt>
      <trkpt lat="50.719962" lon="6.548799">
        <ele>217.400000</ele>
        <time>2009-08-23T10:09:13Z</time>
      </trkpt>
      <trkpt lat="50.720014" lon="6.548735">
        <ele>217.400000</ele>
        <time>2009-08-23T10:09:18Z</time>
      </trkpt>
      <trkpt lat="50.720198" lon="6.548586">
        <ele>217.400000</ele>
        <time>2009-08-23T10:09:33Z</time>
      </trkpt>
      <trkpt lat="50.720221" lon="6.548597">
        <ele>218.360000</ele>
        <time>2009-08-23T10:09:57Z</time>
      </trkpt>
      <trkpt lat="50.720326" lon="6.548574">
        <ele>217.400000</ele>
        <time>2009-08-23T10:11:26Z</time>
      </trkpt>
      <trkpt lat="50.720334" lon="6.548534">
        <ele>217.400000</ele>
        <time>2009-08-23T10:11:29Z</time>
      </trkpt>
      <trkpt lat="50.720486" lon="6.548405">
        <ele>216.910000</ele>
        <time>2009-08-23T10:11:44Z</time>
      </trkpt>
      <trkpt lat="50.720635" lon="6.548263">
        <ele>216.910000</ele>
        <time>2009-08-23T10:11:58Z</time>
      </trkpt>
      <trkpt lat="50.720799" lon="6.548164">
        <ele>216.430000</ele>
        <time>2009-08-23T10:12:12Z</time>
      </trkpt>
      <trkpt lat="50.721054" lon="6.547945">
        <ele>215.950000</ele>
        <time>2009-08-23T10:12:35Z</time>
      </trkpt>
      <trkpt lat="50.721306" lon="6.547775">
        <ele>216.430000</ele>
        <time>2009-08-23T10:12:52Z</time>
      </trkpt>
      <trkpt lat="50.721540" lon="6.547573">
        <ele>215.950000</ele>
        <time>2009-08-23T10:13:06Z</time>
      </trkpt>
      <trkpt lat="50.721559" lon="6.547557">
        <ele>215.950000</ele>
        <time>2009-08-23T10:13:07Z</time>
      </trkpt>
      <trkpt lat="50.721730" lon="6.547411">
        <ele>215.470000</ele>
        <time>2009-08-23T10:13:20Z</time>
      </trkpt>
      <trkpt lat="50.721947" lon="6.547203">
        <ele>214.510000</ele>
        <time>2009-08-23T10:13:39Z</time>
      </trkpt>
      <trkpt lat="50.722035" lon="6.547129">
        <ele>214.510000</ele>
        <time>2009-08-23T10:13:53Z</time>
      </trkpt>
      <trkpt lat="50.722189" lon="6.547102">
        <ele>214.030000</ele>
        <time>2009-08-23T10:14:09Z</time>
      </trkpt>
      <trkpt lat="50.722368" lon="6.547145">
        <ele>214.030000</ele>
        <time>2009-08-23T10:14:33Z</time>
      </trkpt>
      <trkpt lat="50.722350" lon="6.546883">
        <ele>214.030000</ele>
        <time>2009-08-23T10:14:49Z</time>
      </trkpt>
      <trkpt lat="50.722264" lon="6.546631">
        <ele>214.510000</ele>
        <time>2009-08-23T10:15:02Z</time>
      </trkpt>
      <trkpt lat="50.722216" lon="6.546513">
        <ele>214.990000</ele>
        <time>2009-08-23T10:15:09Z</time>
      </trkpt>
      <trkpt lat="50.722191" lon="6.546281">
        <ele>215.470000</ele>
        <time>2009-08-23T10:15:22Z</time>
      </trkpt>
      <trkpt lat="50.722107" lon="6.546026">
        <ele>215.470000</ele>
        <time>2009-08-23T10:15:32Z</time>
      </trkpt>
      <trkpt lat="50.722079" lon="6.545808">
        <ele>215.950000</ele>
        <time>2009-08-23T10:15:43Z</time>
      </trkpt>
      <trkpt lat="50.721952" lon="6.545436">
        <ele>215.950000</ele>
        <time>2009-08-23T10:16:01Z</time>
      </trkpt>
      <trkpt lat="50.721915" lon="6.545172">
        <ele>215.950000</ele>
        <time>2009-08-23T10:16:13Z</time>
      </trkpt>
      <trkpt lat="50.721868" lon="6.545034">
        <ele>216.430000</ele>
        <time>2009-08-23T10:16:20Z</time>
      </trkpt>
      <trkpt lat="50.721866" lon="6.544862">
        <ele>216.430000</ele>
        <time>2009-08-23T10:16:29Z</time>
      </trkpt>
      <trkpt lat="50.721868" lon="6.544825">
        <ele>216.430000</ele>
        <time>2009-08-23T10:16:31Z</time>
      </trkpt>
      <trkpt lat="50.721947" lon="6.544621">
        <ele>216.430000</ele>
        <time>2009-08-23T10:16:42Z</time>
      </trkpt>
      <trkpt lat="50.721974" lon="6.544597">
        <ele>216.910000</ele>
        <time>2009-08-23T10:16:57Z</time>
      </trkpt>
      <trkpt lat="50.721991" lon="6.544559">
        <ele>216.910000</ele>
        <time>2009-08-23T10:16:59Z</time>
      </trkpt>
      <trkpt lat="50.722114" lon="6.544360">
        <ele>216.910000</ele>
        <time>2009-08-23T10:17:09Z</time>
      </trkpt>
      <trkpt lat="50.722168" lon="6.544225">
        <ele>216.910000</ele>
        <time>2009-08-23T10:17:17Z</time>
      </trkpt>
      <trkpt lat="50.722179" lon="6.544189">
        <ele>216.910000</ele>
        <time>2009-08-23T10:17:19Z</time>
      </trkpt>
      <trkpt lat="50.722231" lon="6.544125">
        <ele>216.910000</ele>
        <time>2009-08-23T10:17:24Z</time>
      </trkpt>
      <trkpt lat="50.722291" lon="6.543881">
        <ele>216.910000</ele>
        <time>2009-08-23T10:17:36Z</time>
      </trkpt>
      <trkpt lat="50.722358" lon="6.543688">
        <ele>216.910000</ele>
        <time>2009-08-23T10:17:45Z</time>
      </trkpt>
      <trkpt lat="50.722407" lon="6.543594">
        <ele>216.910000</ele>
        <time>2009-08-23T10:17:49Z</time>
      </trkpt>
      <trkpt lat="50.722515" lon="6.543329">
        <ele>216.910000</ele>
        <time>2009-08-23T10:18:02Z</time>
      </trkpt>
      <trkpt lat="50.722539" lon="6.543266">
        <ele>216.910000</ele>
        <time>2009-08-23T10:18:05Z</time>
      </trkpt>
      <trkpt lat="50.722620" lon="6.543074">
        <ele>216.910000</ele>
        <time>2009-08-23T10:18:19Z</time>
      </trkpt>
      <trkpt lat="50.722654" lon="6.542856">
        <ele>217.400000</ele>
        <time>2009-08-23T10:18:31Z</time>
      </trkpt>
      <trkpt lat="50.722660" lon="6.542726">
        <ele>217.400000</ele>
        <time>2009-08-23T10:18:37Z</time>
      </trkpt>
      <trkpt lat="50.722722" lon="6.542471">
        <ele>217.880000</ele>
        <time>2009-08-23T10:18:48Z</time>
      </trkpt>
      <trkpt lat="50.722726" lon="6.542438">
        <ele>217.880000</ele>
        <time>2009-08-23T10:18:50Z</time>
      </trkpt>
      <trkpt lat="50.722725" lon="6.542389">
        <ele>217.880000</ele>
        <time>2009-08-23T10:18:52Z</time>
      </trkpt>
      <trkpt lat="50.722879" lon="6.542100">
        <ele>217.880000</ele>
        <time>2009-08-23T10:19:08Z</time>
      </trkpt>
      <trkpt lat="50.723000" lon="6.541987">
        <ele>217.880000</ele>
        <time>2009-08-23T10:19:17Z</time>
      </trkpt>
      <trkpt lat="50.723127" lon="6.541872">
        <ele>217.880000</ele>
        <time>2009-08-23T10:19:29Z</time>
      </trkpt>
      <trkpt lat="50.723184" lon="6.541867">
        <ele>217.880000</ele>
        <time>2009-08-23T10:19:33Z</time>
      </trkpt>
      <trkpt lat="50.723355" lon="6.541839">
        <ele>217.400000</ele>
        <time>2009-08-23T10:19:48Z</time>
      </trkpt>
      <trkpt lat="50.723583" lon="6.541885">
        <ele>216.910000</ele>
        <time>2009-08-23T10:20:05Z</time>
      </trkpt>
      <trkpt lat="50.723852" lon="6.541908">
        <ele>215.950000</ele>
        <time>2009-08-23T10:20:26Z</time>
      </trkpt>
      <trkpt lat="50.724033" lon="6.541878">
        <ele>215.950000</ele>
        <time>2009-08-23T10:20:38Z</time>
      </trkpt>
      <trkpt lat="50.724162" lon="6.541993">
        <ele>215.470000</ele>
        <time>2009-08-23T10:20:50Z</time>
      </trkpt>
      <trkpt lat="50.724417" lon="6.542066">
        <ele>215.470000</ele>
        <time>2009-08-23T10:21:07Z</time>
      </trkpt>
      <trkpt lat="50.724681" lon="6.542120">
        <ele>214.990000</ele>
        <time>2009-08-23T10:21:24Z</time>
      </trkpt>
      <trkpt lat="50.724873" lon="6.542081">
        <ele>214.990000</ele>
        <time>2009-08-23T10:21:37Z</time>
      </trkpt>
      <trkpt lat="50.725046" lon="6.542119">
        <ele>214.510000</ele>
        <time>2009-08-23T10:21:50Z</time>
      </trkpt>
      <trkpt lat="50.725112" lon="6.542117">
        <ele>214.030000</ele>
        <time>2009-08-23T10:21:58Z</time>
      </trkpt>
      <trkpt lat="50.725173" lon="6.542136">
        <ele>214.030000</ele>
        <time>2009-08-23T10:22:03Z</time>
      </trkpt>
      <trkpt lat="50.725305" lon="6.542221">
        <ele>213.550000</ele>
        <time>2009-08-23T10:22:16Z</time>
      </trkpt>
      <trkpt lat="50.725545" lon="6.542326">
        <ele>212.110000</ele>
        <time>2009-08-23T10:22:33Z</time>
      </trkpt>
      <trkpt lat="50.725705" lon="6.542452">
        <ele>211.630000</ele>
        <time>2009-08-23T10:22:46Z</time>
      </trkpt>
      <trkpt lat="50.725750" lon="6.542518">
        <ele>211.150000</ele>
        <time>2009-08-23T10:22:50Z</time>
      </trkpt>
      <trkpt lat="50.725777" lon="6.542554">
        <ele>211.150000</ele>
        <time>2009-08-23T10:22:53Z</time>
      </trkpt>
      <trkpt lat="50.725846" lon="6.542656">
        <ele>210.670000</ele>
        <time>2009-08-23T10:23:00Z</time>
      </trkpt>
      <trkpt lat="50.725919" lon="6.542844">
        <ele>210.190000</ele>
        <time>2009-08-23T10:23:12Z</time>
      </trkpt>
      <trkpt lat="50.726042" lon="6.542877">
        <ele>210.190000</ele>
        <time>2009-08-23T10:23:19Z</time>
      </trkpt>
      <trkpt lat="50.726210" lon="6.542827">
        <ele>209.220000</ele>
        <time>2009-08-23T10:23:30Z</time>
      </trkpt>
      <trkpt lat="50.726403" lon="6.542743">
        <ele>208.260000</ele>
        <time>2009-08-23T10:23:44Z</time>
      </trkpt>
      <trkpt lat="50.726591" lon="6.542685">
        <ele>207.780000</ele>
        <time>2009-08-23T10:23:58Z</time>
      </trkpt>
      <trkpt lat="50.726757" lon="6.542600">
        <ele>206.820000</ele>
        <time>2009-08-23T10:24:13Z</time>
      </trkpt>
      <trkpt lat="50.726887" lon="6.542548">
        <ele>206.820000</ele>
        <time>2009-08-23T10:24:27Z</time>
      </trkpt>
      <trkpt lat="50.726911" lon="6.542537">
        <ele>206.820000</ele>
        <time>2009-08-23T10:24:28Z</time>
      </trkpt>
      <trkpt lat="50.727124" lon="6.542456">
        <ele>206.820000</ele>
        <time>2009-08-23T10:24:42Z</time>
      </trkpt>
      <trkpt lat="50.727322" lon="6.542426">
        <ele>205.860000</ele>
        <time>2009-08-23T10:24:56Z</time>
      </trkpt>
      <trkpt lat="50.727466" lon="6.542379">
        <ele>205.380000</ele>
        <time>2009-08-23T10:25:09Z</time>
      </trkpt>
      <trkpt lat="50.727622" lon="6.542305">
        <ele>205.380000</ele>
        <time>2009-08-23T10:25:20Z</time>
      </trkpt>
      <trkpt lat="50.727783" lon="6.542252">
        <ele>205.380000</ele>
        <time>2009-08-23T10:25:31Z</time>
      </trkpt>
      <trkpt lat="50.727962" lon="6.542216">
        <ele>204.900000</ele>
        <time>2009-08-23T10:25:44Z</time>
      </trkpt>
      <trkpt lat="50.728082" lon="6.542195">
        <ele>203.940000</ele>
        <time>2009-08-23T10:25:55Z</time>
      </trkpt>
      <trkpt lat="50.728326" lon="6.542150">
        <ele>203.940000</ele>
        <time>2009-08-23T10:26:13Z</time>
      </trkpt>
      <trkpt lat="50.728394" lon="6.542132">
        <ele>203.940000</ele>
        <time>2009-08-23T10:26:19Z</time>
      </trkpt>
      <trkpt lat="50.728463" lon="6.542090">
        <ele>203.940000</ele>
        <time>2009-08-23T10:26:23Z</time>
      </trkpt>
      <trkpt lat="50.728572" lon="6.542001">
        <ele>203.940000</ele>
        <time>2009-08-23T10:26:38Z</time>
      </trkpt>
      <trkpt lat="50.728556" lon="6.542017">
        <ele>202.490000</ele>
        <time>2009-08-23T10:29:01Z</time>
      </trkpt>
      <trkpt lat="50.728528" lon="6.542039">
        <ele>202.980000</ele>
        <time>2009-08-23T10:31:23Z</time>
      </trkpt>
      <trkpt lat="50.728591" lon="6.542052">
        <ele>203.460000</ele>
        <time>2009-08-23T10:34:18Z</time>
      </trkpt>
      <trkpt lat="50.728656" lon="6.542001">
        <ele>203.460000</ele>
        <time>2009-08-23T10:34:22Z</time>
      </trkpt>
      <trkpt lat="50.728957" lon="6.541854">
        <ele>203.460000</ele>
        <time>2009-08-23T10:34:47Z</time>
      </trkpt>
      <trkpt lat="50.729165" lon="6.541767">
        <ele>203.940000</ele>
        <time>2009-08-23T10:35:03Z</time>
      </trkpt>
      <trkpt lat="50.729391" lon="6.541622">
        <ele>204.420000</ele>
        <time>2009-08-23T10:35:16Z</time>
      </trkpt>
      <trkpt lat="50.729409" lon="6.541567">
        <ele>204.900000</ele>
        <time>2009-08-23T10:35:20Z</time>
      </trkpt>
      <trkpt lat="50.729425" lon="6.541518">
        <ele>205.380000</ele>
        <time>2009-08-23T10:35:23Z</time>
      </trkpt>
      <trkpt lat="50.729423" lon="6.541473">
        <ele>204.900000</ele>
        <time>2009-08-23T10:35:26Z</time>
      </trkpt>
      <trkpt lat="50.729554" lon="6.541184">
        <ele>205.860000</ele>
        <time>2009-08-23T10:35:41Z</time>
      </trkpt>
      <trkpt lat="50.729713" lon="6.541189">
        <ele>205.860000</ele>
        <time>2009-08-23T10:35:54Z</time>
      </trkpt>
      <trkpt lat="50.729874" lon="6.541101">
        <ele>206.820000</ele>
        <time>2009-08-23T10:36:09Z</time>
      </trkpt>
      <trkpt lat="50.730121" lon="6.541181">
        <ele>207.300000</ele>
        <time>2009-08-23T10:36:23Z</time>
      </trkpt>
      <trkpt lat="50.730300" lon="6.541119">
        <ele>207.300000</ele>
        <time>2009-08-23T10:36:38Z</time>
      </trkpt>
      <trkpt lat="50.730445" lon="6.541098">
        <ele>207.300000</ele>
        <time>2009-08-23T10:36:50Z</time>
      </trkpt>
      <trkpt lat="50.730527" lon="6.541121">
        <ele>207.780000</ele>
        <time>2009-08-23T10:36:58Z</time>
      </trkpt>
      <trkpt lat="50.730600" lon="6.541135">
        <ele>207.300000</ele>
        <time>2009-08-23T10:37:02Z</time>
      </trkpt>
      <trkpt lat="50.730727" lon="6.541098">
        <ele>207.780000</ele>
        <time>2009-08-23T10:37:11Z</time>
      </trkpt>
      <trkpt lat="50.730934" lon="6.540971">
        <ele>208.260000</ele>
        <time>2009-08-23T10:37:26Z</time>
      </trkpt>
      <trkpt lat="50.731070" lon="6.540848">
        <ele>207.780000</ele>
        <time>2009-08-23T10:37:37Z</time>
      </trkpt>
      <trkpt lat="50.731174" lon="6.540820">
        <ele>207.780000</ele>
        <time>2009-08-23T10:37:45Z</time>
      </trkpt>
      <trkpt lat="50.731272" lon="6.540778">
        <ele>207.780000</ele>
        <time>2009-08-23T10:37:52Z</time>
      </trkpt>
      <trkpt lat="50.731492" lon="6.540707">
        <ele>206.820000</ele>
        <time>2009-08-23T10:38:07Z</time>
      </trkpt>
      <trkpt lat="50.731547" lon="6.540687">
        <ele>206.820000</ele>
        <time>2009-08-23T10:38:11Z</time>
      </trkpt>
      <trkpt lat="50.731667" lon="6.540600">
        <ele>206.820000</ele>
        <time>2009-08-23T10:38:21Z</time>
      </trkpt>
      <trkpt lat="50.731835" lon="6.540515">
        <ele>206.340000</ele>
        <time>2009-08-23T10:38:35Z</time>
      </trkpt>
      <trkpt lat="50.731959" lon="6.540617">
        <ele>206.340000</ele>
        <time>2009-08-23T10:38:44Z</time>
      </trkpt>
      <trkpt lat="50.732080" lon="6.540701">
        <ele>205.380000</ele>
        <time>2009-08-23T10:38:55Z</time>
      </trkpt>
      <trkpt lat="50.732150" lon="6.540811">
        <ele>205.860000</ele>
        <time>2009-08-23T10:39:01Z</time>
      </trkpt>
      <trkpt lat="50.732194" lon="6.540892">
        <ele>205.860000</ele>
        <time>2009-08-23T10:39:06Z</time>
      </trkpt>
      <trkpt lat="50.732299" lon="6.541039">
        <ele>205.380000</ele>
        <time>2009-08-23T10:39:16Z</time>
      </trkpt>
      <trkpt lat="50.732452" lon="6.541199">
        <ele>204.900000</ele>
        <time>2009-08-23T10:39:30Z</time>
      </trkpt>
      <trkpt lat="50.732495" lon="6.541442">
        <ele>204.900000</ele>
        <time>2009-08-23T10:39:43Z</time>
      </trkpt>
      <trkpt lat="50.732540" lon="6.541543">
        <ele>205.380000</ele>
        <time>2009-08-23T10:39:49Z</time>
      </trkpt>
      <trkpt lat="50.732713" lon="6.541746">
        <ele>205.380000</ele>
        <time>2009-08-23T10:40:03Z</time>
      </trkpt>
      <trkpt lat="50.732797" lon="6.541819">
        <ele>205.380000</ele>
        <time>2009-08-23T10:40:10Z</time>
      </trkpt>
      <trkpt lat="50.732937" lon="6.541839">
        <ele>205.380000</ele>
        <time>2009-08-23T10:40:22Z</time>
      </trkpt>
      <trkpt lat="50.733112" lon="6.541803">
        <ele>204.900000</ele>
        <time>2009-08-23T10:40:35Z</time>
      </trkpt>
      <trkpt lat="50.733322" lon="6.541681">
        <ele>204.900000</ele>
        <time>2009-08-23T10:40:50Z</time>
      </trkpt>
      <trkpt lat="50.733519" lon="6.541567">
        <ele>204.900000</ele>
        <time>2009-08-23T10:41:04Z</time>
      </trkpt>
      <trkpt lat="50.733717" lon="6.541407">
        <ele>203.940000</ele>
        <time>2009-08-23T10:41:19Z</time>
      </trkpt>
      <trkpt lat="50.733824" lon="6.541291">
        <ele>203.940000</ele>
        <time>2009-08-23T10:41:30Z</time>
      </trkpt>
      <trkpt lat="50.733989" lon="6.541175">
        <ele>203.460000</ele>
        <time>2009-08-23T10:41:44Z</time>
      </trkpt>
      <trkpt lat="50.734201" lon="6.540927">
        <ele>202.980000</ele>
        <time>2009-08-23T10:42:02Z</time>
      </trkpt>
      <trkpt lat="50.734210" lon="6.540904">
        <ele>202.980000</ele>
        <time>2009-08-23T10:42:03Z</time>
      </trkpt>
      <trkpt lat="50.734269" lon="6.541020">
        <ele>202.980000</ele>
        <time>2009-08-23T10:42:12Z</time>
      </trkpt>
      <trkpt lat="50.734333" lon="6.541152">
        <ele>203.940000</ele>
        <time>2009-08-23T10:42:20Z</time>
      </trkpt>
      <trkpt lat="50.734379" lon="6.541282">
        <ele>203.460000</ele>
        <time>2009-08-23T10:42:27Z</time>
      </trkpt>
      <trkpt lat="50.734389" lon="6.541362">
        <ele>202.490000</ele>
        <time>2009-08-23T10:42:31Z</time>
      </trkpt>
      <trkpt lat="50.734404" lon="6.541429">
        <ele>203.460000</ele>
        <time>2009-08-23T10:42:35Z</time>
      </trkpt>
      <trkpt lat="50.734375" lon="6.541563">
        <ele>202.490000</ele>
        <time>2009-08-23T10:42:51Z</time>
      </trkpt>
      <trkpt lat="50.734351" lon="6.541824">
        <ele>202.490000</ele>
        <time>2009-08-23T10:43:04Z</time>
      </trkpt>
      <trkpt lat="50.734257" lon="6.542532">
        <ele>202.490000</ele>
        <time>2009-08-23T10:44:19Z</time>
      </trkpt>
      <trkpt lat="50.734227" lon="6.542850">
        <ele>202.980000</ele>
        <time>2009-08-23T10:44:35Z</time>
      </trkpt>
      <trkpt lat="50.734180" lon="6.543007">
        <ele>202.490000</ele>
        <time>2009-08-23T10:44:43Z</time>
      </trkpt>
      <trkpt lat="50.734161" lon="6.543225">
        <ele>202.490000</ele>
        <time>2009-08-23T10:44:53Z</time>
      </trkpt>
      <trkpt lat="50.734141" lon="6.543379">
        <ele>202.490000</ele>
        <time>2009-08-23T10:44:59Z</time>
      </trkpt>
      <trkpt lat="50.734116" lon="6.543625">
        <ele>202.010000</ele>
        <time>2009-08-23T10:45:12Z</time>
      </trkpt>
      <trkpt lat="50.734117" lon="6.543834">
        <ele>202.010000</ele>
        <time>2009-08-23T10:45:21Z</time>
      </trkpt>
      <trkpt lat="50.734097" lon="6.544035">
        <ele>201.530000</ele>
        <time>2009-08-23T10:45:31Z</time>
      </trkpt>
      <trkpt lat="50.734057" lon="6.544298">
        <ele>201.530000</ele>
        <time>2009-08-23T10:45:43Z</time>
      </trkpt>
      <trkpt lat="50.734040" lon="6.544378">
        <ele>201.050000</ele>
        <time>2009-08-23T10:45:47Z</time>
      </trkpt>
      <trkpt lat="50.734028" lon="6.544736">
        <ele>201.530000</ele>
        <time>2009-08-23T10:46:05Z</time>
      </trkpt>
      <trkpt lat="50.733960" lon="6.545094">
        <ele>200.570000</ele>
        <time>2009-08-23T10:46:22Z</time>
      </trkpt>
      <trkpt lat="50.733925" lon="6.545383">
        <ele>201.050000</ele>
        <time>2009-08-23T10:46:36Z</time>
      </trkpt>
      <trkpt lat="50.733907" lon="6.545559">
        <ele>200.570000</ele>
        <time>2009-08-23T10:46:44Z</time>
      </trkpt>
      <trkpt lat="50.733874" lon="6.545764">
        <ele>200.090000</ele>
        <time>2009-08-23T10:46:52Z</time>
      </trkpt>
      <trkpt lat="50.733870" lon="6.545917">
        <ele>200.090000</ele>
        <time>2009-08-23T10:46:58Z</time>
      </trkpt>
      <trkpt lat="50.733847" lon="6.546036">
        <ele>200.090000</ele>
        <time>2009-08-23T10:47:05Z</time>
      </trkpt>
      <trkpt lat="50.733840" lon="6.546141">
        <ele>199.610000</ele>
        <time>2009-08-23T10:47:10Z</time>
      </trkpt>
      <trkpt lat="50.733759" lon="6.546406">
        <ele>199.610000</ele>
        <time>2009-08-23T10:47:23Z</time>
      </trkpt>
      <trkpt lat="50.733750" lon="6.546427">
        <ele>199.610000</ele>
        <time>2009-08-23T10:47:24Z</time>
      </trkpt>
      <trkpt lat="50.733723" lon="6.546552">
        <ele>199.610000</ele>
        <time>2009-08-23T10:47:32Z</time>
      </trkpt>
      <trkpt lat="50.733536" lon="6.546889">
        <ele>199.610000</ele>
        <time>2009-08-23T10:47:49Z</time>
      </trkpt>
      <trkpt lat="50.733360" lon="6.547031">
        <ele>199.130000</ele>
        <time>2009-08-23T10:48:03Z</time>
      </trkpt>
      <trkpt lat="50.733302" lon="6.547134">
        <ele>199.130000</ele>
        <time>2009-08-23T10:48:09Z</time>
      </trkpt>
      <trkpt lat="50.733230" lon="6.547403">
        <ele>198.650000</ele>
        <time>2009-08-23T10:48:22Z</time>
      </trkpt>
      <trkpt lat="50.733216" lon="6.547624">
        <ele>198.170000</ele>
        <time>2009-08-23T10:48:34Z</time>
      </trkpt>
      <trkpt lat="50.733205" lon="6.547700">
        <ele>198.170000</ele>
        <time>2009-08-23T10:48:38Z</time>
      </trkpt>
      <trkpt lat="50.733156" lon="6.547980">
        <ele>197.690000</ele>
        <time>2009-08-23T10:48:53Z</time>
      </trkpt>
      <trkpt lat="50.733122" lon="6.548309">
        <ele>197.690000</ele>
        <time>2009-08-23T10:49:09Z</time>
      </trkpt>
      <trkpt lat="50.733098" lon="6.548418">
        <ele>197.690000</ele>
        <time>2009-08-23T10:49:14Z</time>
      </trkpt>
      <trkpt lat="50.733066" lon="6.548638">
        <ele>197.210000</ele>
        <time>2009-08-23T10:49:25Z</time>
      </trkpt>
      <trkpt lat="50.733038" lon="6.548865">
        <ele>197.210000</ele>
        <time>2009-08-23T10:49:35Z</time>
      </trkpt>
      <trkpt lat="50.733024" lon="6.548978">
        <ele>197.690000</ele>
        <time>2009-08-23T10:49:39Z</time>
      </trkpt>
      <trkpt lat="50.733017" lon="6.549232">
        <ele>197.210000</ele>
        <time>2009-08-23T10:49:54Z</time>
      </trkpt>
      <trkpt lat="50.732973" lon="6.549351">
        <ele>196.250000</ele>
        <time>2009-08-23T10:50:02Z</time>
      </trkpt>
    </trkseg>
  </trk>

</gpx>
